Observation data for Stamford on 03/01/2021      Previous  Date  Next       Current Mesonet Observations  Soil Data  Daily Summary Page  Observations in Plain Language
KST2 010600Z 02017KT 08/M03 A3011 RMK A01 T00821030  RH  045%=      5-min Rain = 0
KST2 010601Z 03018KT 08/M03 A3011 RMK A01 T00821030  RH  045%=      5-min Rain = 0
KST2 010602Z 03017KT 08/M03 A3011 RMK A01 T00831030  RH  045%=      5-min Rain = 0
KST2 010603Z 03017KT 08/M03 A3011 RMK A01 T00831030  RH  045%=      5-min Rain = 0
KST2 010604Z 03016KT 08/M03 A3011 RMK A01 T00831029  RH  045%=      5-min Rain = 0
KST2 010605Z 03016KT 08/M03 A3011 RMK A01 T00831029  RH  045%=      5-min Rain = 0
KST2 010606Z 03016KT 08/M03 A3011 RMK A01 T00841029  RH  045%=      5-min Rain = 0
KST2 010607Z 03017KT 08/M03 A3011 RMK A01 T00841029  RH  045%=      5-min Rain = 0
KST2 010608Z 03016KT 08/M03 A3011 RMK A01 T00841028  RH  045%=      5-min Rain = 0
KST2 010609Z 03016KT 08/M03 A3011 RMK A01 T00841028  RH  045%=      5-min Rain = 0
KST2 010610Z 03017KT 09/M03 A3011 RMK A01 T00851027  RH  045%=      5-min Rain = 0
KST2 010611Z 03016KT 09/M03 A3011 RMK A01 T00851027  RH  045%=      5-min Rain = 0
KST2 010612Z 03014KT 09/M03 A3011 RMK A01 T00851027  RH  045%=      5-min Rain = 0
KST2 010613Z 04016KT 08/M03 A3011 RMK A01 T00841026  RH  046%=      5-min Rain = 0
KST2 010614Z 03015KT 08/M03 A3011 RMK A01 T00841026  RH  046%=      5-min Rain = 0
KST2 010615Z 03015KT 08/M03 A3011 RMK A01 T00841026  RH  046%=      5-min Rain = 0
KST2 010616Z 03014KT 08/M03 A3011 RMK A01 T00841026  RH  046%=      5-min Rain = 0
KST2 010617Z 04015G20KT 08/M03 A3011 RMK A01 T00841025  RH  046%=      5-min Rain = 0
KST2 010618Z 03016KT 08/M03 A3011 RMK A01 T00841025  RH  046%=      5-min Rain = 0
KST2 010619Z 03014KT 09/M02 A3011 RMK A01 T00851024  RH  046%=      5-min Rain = 0
KST2 010620Z 03016KT 08/M02 A3011 RMK A01 T00841024  RH  046%=      5-min Rain = 0
KST2 010621Z 04015KT 08/M02 A3011 RMK A01 T00841024  RH  046%=      5-min Rain = 0
KST2 010622Z 04012KT 08/M02 A3011 RMK A01 T00841024  RH  046%=      5-min Rain = 0
KST2 010623Z 04013KT 08/M02 A3012 RMK A01 T00841023  RH  047%=      5-min Rain = 0
KST2 010624Z 04014KT 08/M02 A3012 RMK A01 T00841023  RH  047%=      5-min Rain = 0
KST2 010625Z 04012KT 09/M02 A3012 RMK A01 T00851023  RH  047%=      5-min Rain = 0
KST2 010626Z 04016KT 08/M02 A3012 RMK A01 T00841023  RH  047%=      5-min Rain = 0
KST2 010627Z 04015KT 09/M02 A3012 RMK A01 T00851022  RH  047%=      5-min Rain = 0
KST2 010628Z 04013KT 09/M02 A3013 RMK A01 T00861022  RH  047%=      5-min Rain = 0
KST2 010629Z 04014KT 09/M02 A3013 RMK A01 T00861021  RH  047%=      5-min Rain = 0
KST2 010630Z 04014KT 09/M02 A3013 RMK A01 T00861021  RH  047%=      5-min Rain = 0
KST2 010631Z 04012KT 09/M02 A3013 RMK A01 T00861020  RH  047%=      5-min Rain = 0
KST2 010632Z 04011KT 09/M02 A3013 RMK A01 T00861020  RH  047%=      5-min Rain = 0
KST2 010633Z 03013KT 09/M02 A3013 RMK A01 T00861020  RH  047%=      5-min Rain = 0
KST2 010634Z 04013KT 09/M02 A3013 RMK A01 T00861020  RH  047%=      5-min Rain = 0
KST2 010635Z 04014KT 09/M02 A3013 RMK A01 T00871019  RH  047%=      5-min Rain = 0
KST2 010636Z 04015KT 09/M02 A3013 RMK A01 T00861019  RH  047%=      5-min Rain = 0
KST2 010637Z 04016KT 09/M02 A3013 RMK A01 T00871019  RH  047%=      5-min Rain = 0
KST2 010638Z 04016KT 09/M02 A3013 RMK A01 T00871019  RH  047%=      5-min Rain = 0
KST2 010639Z 04015KT 09/M02 A3013 RMK A01 T00871019  RH  047%=      5-min Rain = 0
KST2 010640Z 04016KT 09/M02 A3013 RMK A01 T00871018  RH  048%=      5-min Rain = 0
KST2 010641Z 04015KT 09/M02 A3013 RMK A01 T00871018  RH  048%=      5-min Rain = 0
KST2 010642Z 04015KT 09/M02 A3013 RMK A01 T00871018  RH  048%=      5-min Rain = 0
KST2 010643Z 04018KT 09/M02 A3013 RMK A01 T00871018  RH  048%=      5-min Rain = 0
KST2 010644Z 04016KT 09/M02 A3013 RMK A01 T00871018  RH  048%=      5-min Rain = 0
KST2 010645Z 03014KT 09/M02 A3013 RMK A01 T00871018  RH  048%=      5-min Rain = 0
KST2 010646Z 03016KT 09/M02 A3013 RMK A01 T00871018  RH  048%=      5-min Rain = 0
KST2 010647Z 04018KT 09/M02 A3013 RMK A01 T00871018  RH  048%=      5-min Rain = 0
KST2 010648Z 03017KT 09/M02 A3013 RMK A01 T00881018  RH  047%=      5-min Rain = 0
KST2 010649Z 03017KT 09/M02 A3013 RMK A01 T00881018  RH  047%=      5-min Rain = 0
KST2 010650Z 03017KT 09/M02 A3012 RMK A01 T00871018  RH  047%=      5-min Rain = 0
KST2 010651Z 03017KT 09/M02 A3012 RMK A01 T00871018  RH  048%=      5-min Rain = 0
KST2 010652Z 03019KT 09/M02 A3012 RMK A01 T00881018  RH  048%=      5-min Rain = 0
KST2 010653Z 03016KT 09/M02 A3012 RMK A01 T00881018  RH  047%=      5-min Rain = 0
KST2 010654Z 03017KT 09/M02 A3012 RMK A01 T00881018  RH  048%=      5-min Rain = 0
KST2 010655Z 03015KT 09/M02 A3012 RMK A01 T00871017  RH  048%=      5-min Rain = 0
KST2 010656Z 03018KT 09/M02 A3012 RMK A01 T00881017  RH  048%=      5-min Rain = 0
KST2 010657Z 03017KT 09/M02 A3013 RMK A01 T00881018  RH  048%=      5-min Rain = 0
KST2 010658Z 03017KT 09/M02 A3013 RMK A01 T00881018  RH  048%=      5-min Rain = 0
KST2 010659Z 03016KT 09/M02 A3013 RMK A01 T00871018  RH  048%=      5-min Rain = 0
KST2 010700Z 03014KT 09/M02 A3013 RMK A01 T00881017  RH  048%=      5-min Rain = 0
KST2 010701Z 04014KT 09/M02 A3013 RMK A01 T00881017  RH  048%=      5-min Rain = 0
KST2 010702Z 04014KT 09/M02 A3013 RMK A01 T00871017  RH  048%=      5-min Rain = 0
KST2 010703Z 04016KT 09/M02 A3013 RMK A01 T00871017  RH  048%=      5-min Rain = 0
KST2 010704Z 04015KT 09/M02 A3013 RMK A01 T00871017  RH  048%=      5-min Rain = 0
KST2 010705Z 04016KT 09/M02 A3013 RMK A01 T00861017  RH  048%=      5-min Rain = 0
KST2 010706Z 04016KT 09/M02 A3013 RMK A01 T00871017  RH  048%=      5-min Rain = 0
KST2 010707Z 04017KT 09/M02 A3013 RMK A01 T00871017  RH  048%=      5-min Rain = 0
KST2 010708Z 04017KT 09/M02 A3013 RMK A01 T00871018  RH  048%=      5-min Rain = 0
KST2 010709Z 04020KT 09/M02 A3013 RMK A01 T00871018  RH  048%=      5-min Rain = 0
KST2 010710Z 04019KT 09/M02 A3013 RMK A01 T00871018  RH  048%=      5-min Rain = 0
KST2 010711Z 03020KT 09/M02 A3013 RMK A01 T00871018  RH  048%=      5-min Rain = 0
KST2 010712Z 03018KT 09/M02 A3013 RMK A01 T00871018  RH  048%=      5-min Rain = 0
KST2 010713Z 03019KT 09/M02 A3014 RMK A01 T00861018  RH  048%=      5-min Rain = 0
KST2 010714Z 03016KT 09/M02 A3014 RMK A01 T00871017  RH  048%=      5-min Rain = 0
KST2 010715Z 03019KT 09/M02 A3015 RMK A01 T00871016  RH  048%=      5-min Rain = 0
KST2 010716Z 03018KT 09/M02 A3015 RMK A01 T00871016  RH  048%=      5-min Rain = 0
KST2 010717Z 02016KT 09/M02 A3015 RMK A01 T00871016  RH  048%=      5-min Rain = 0
KST2 010718Z 02017KT 09/M02 A3016 RMK A01 T00871016  RH  049%=      5-min Rain = 0
KST2 010719Z 03015KT 09/M02 A3016 RMK A01 T00871015  RH  049%=      5-min Rain = 0
KST2 010720Z 03017KT 09/M02 A3016 RMK A01 T00871015  RH  049%=      5-min Rain = 0
KST2 010721Z 02016KT 09/M02 A3017 RMK A01 T00871015  RH  049%=      5-min Rain = 0
KST2 010722Z 03016KT 09/M02 A3017 RMK A01 T00871015  RH  049%=      5-min Rain = 0
KST2 010723Z 03017KT 09/M02 A3016 RMK A01 T00871015  RH  049%=      5-min Rain = 0
KST2 010724Z 03014KT 09/M02 A3016 RMK A01 T00871015  RH  049%=      5-min Rain = 0
KST2 010725Z 03016KT 09/M01 A3016 RMK A01 T00871014  RH  049%=      5-min Rain = 0
KST2 010726Z 03015KT 09/M02 A3016 RMK A01 T00871015  RH  049%=      5-min Rain = 0
KST2 010727Z 04018KT 09/M02 A3016 RMK A01 T00871016  RH  049%=      5-min Rain = 0
KST2 010728Z 03016KT 09/M02 A3016 RMK A01 T00871016  RH  049%=      5-min Rain = 0
KST2 010729Z 03015KT 09/M02 A3015 RMK A01 T00861015  RH  049%=      5-min Rain = 0
KST2 010730Z 03013KT 09/M02 A3015 RMK A01 T00861015  RH  049%=      5-min Rain = 0
KST2 010731Z 02017KT 09/M02 A3016 RMK A01 T00861015  RH  049%=      5-min Rain = 0
KST2 010732Z 03017KT 09/M02 A3016 RMK A01 T00861017  RH  049%=      5-min Rain = 0
KST2 010733Z 02017G22KT 09/M02 A3016 RMK A01 T00861017  RH  048%=      5-min Rain = 0
KST2 010734Z 03019KT 09/M02 A3016 RMK A01 T00861018  RH  048%=      5-min Rain = 0
KST2 010735Z 03017KT 09/M02 A3016 RMK A01 T00861018  RH  048%=      5-min Rain = 0
KST2 010736Z 03020G25KT 09/M02 A3016 RMK A01 T00861017  RH  048%=      5-min Rain = 0
KST2 010737Z 03020KT 09/M02 A3016 RMK A01 T00861018  RH  048%=      5-min Rain = 0
KST2 010738Z 03019KT 09/M02 A3016 RMK A01 T00861018  RH  048%=      5-min Rain = 0
KST2 010739Z 03020KT 09/M02 A3016 RMK A01 T00861018  RH  048%=      5-min Rain = 0
KST2 010740Z 03016KT 09/M02 A3016 RMK A01 T00861018  RH  048%=      5-min Rain = 0
KST2 010741Z 03015KT 09/M02 A3016 RMK A01 T00851018  RH  048%=      5-min Rain = 0
KST2 010742Z 03017G25KT 09/M02 A3016 RMK A01 T00851017  RH  049%=      5-min Rain = 0
KST2 010743Z 03019KT 09/M02 A3015 RMK A01 T00851018  RH  048%=      5-min Rain = 0
KST2 010744Z 03016KT 09/M02 A3015 RMK A01 T00851018  RH  048%=      5-min Rain = 0
KST2 010745Z 03020KT 08/M02 A3015 RMK A01 T00841018  RH  049%=      5-min Rain = 0
KST2 010746Z 03021KT 08/M02 A3015 RMK A01 T00841019  RH  048%=      5-min Rain = 0
KST2 010747Z 02019KT 09/M02 A3015 RMK A01 T00851019  RH  048%=      5-min Rain = 0
KST2 010748Z 03017KT 08/M02 A3015 RMK A01 T00841019  RH  048%=      5-min Rain = 0
KST2 010749Z 03016KT 08/M02 A3015 RMK A01 T00841018  RH  049%=      5-min Rain = 0
KST2 010750Z 03017KT 08/M02 A3016 RMK A01 T00841017  RH  049%=      5-min Rain = 0
KST2 010751Z 02017KT 08/M02 A3016 RMK A01 T00841017  RH  049%=      5-min Rain = 0
KST2 010752Z 02019KT 08/M02 A3016 RMK A01 T00831018  RH  049%=      5-min Rain = 0
KST2 010753Z 02020KT 08/M02 A3016 RMK A01 T00831019  RH  049%=      5-min Rain = 0
KST2 010754Z 03017KT 08/M02 A3016 RMK A01 T00841018  RH  049%=      5-min Rain = 0
KST2 010755Z 02017KT 08/M02 A3016 RMK A01 T00841018  RH  049%=      5-min Rain = 0
KST2 010756Z 03019KT 08/M02 A3016 RMK A01 T00841018  RH  049%=      5-min Rain = 0
KST2 010757Z 02019KT 08/M02 A3016 RMK A01 T00841019  RH  048%=      5-min Rain = 0
KST2 010758Z 02019KT 08/M02 A3016 RMK A01 T00841020  RH  048%=      5-min Rain = 0
KST2 010759Z 02019KT 08/M02 A3016 RMK A01 T00841020  RH  048%=      5-min Rain = 0
KST2 010800Z 03020KT 08/M02 A3016 RMK A01 T00841019  RH  048%=      5-min Rain = 0
KST2 010801Z 03020KT 08/M02 A3016 RMK A01 T00841019  RH  048%=      5-min Rain = 0
KST2 010802Z 03018KT 08/M02 A3016 RMK A01 T00831019  RH  048%=      5-min Rain = 0
KST2 010803Z 03017KT 08/M02 A3015 RMK A01 T00831019  RH  049%=      5-min Rain = 0
KST2 010804Z 03017KT 08/M02 A3015 RMK A01 T00831019  RH  049%=      5-min Rain = 0
KST2 010805Z 03017KT 08/M02 A3015 RMK A01 T00821019  RH  049%=      5-min Rain = 0
KST2 010806Z 03017KT 08/M02 A3015 RMK A01 T00831018  RH  049%=      5-min Rain = 0
KST2 010807Z 03018KT 08/M02 A3015 RMK A01 T00831018  RH  049%=      5-min Rain = 0
KST2 010808Z 03017KT 08/M02 A3015 RMK A01 T00831018  RH  049%=      5-min Rain = 0
KST2 010809Z 03017KT 08/M02 A3015 RMK A01 T00821019  RH  049%=      5-min Rain = 0
KST2 010810Z 03016KT 08/M02 A3015 RMK A01 T00821018  RH  049%=      5-min Rain = 0
KST2 010811Z 03016KT 08/M02 A3015 RMK A01 T00821018  RH  049%=      5-min Rain = 0
KST2 010812Z 03014KT 08/M02 A3015 RMK A01 T00821018  RH  049%=      5-min Rain = 0
KST2 010813Z 03012KT 08/M02 A3015 RMK A01 T00821018  RH  049%=      5-min Rain = 0
KST2 010814Z 02013KT 08/M02 A3016 RMK A01 T00821018  RH  050%=      5-min Rain = 0
KST2 010815Z 02011KT 08/M02 A3016 RMK A01 T00811018  RH  050%=      5-min Rain = 0
KST2 010816Z 01012KT 08/M02 A3017 RMK A01 T00811017  RH  050%=      5-min Rain = 0
KST2 010817Z 01015KT 08/M02 A3018 RMK A01 T00811019  RH  049%=      5-min Rain = 0
KST2 010818Z 01015KT 08/M02 A3018 RMK A01 T00811020  RH  049%=      5-min Rain = 0
KST2 010819Z 02016KT 08/M02 A3019 RMK A01 T00811020  RH  049%=      5-min Rain = 0
KST2 010820Z 01013KT 08/M02 A3019 RMK A01 T00811020  RH  049%=      5-min Rain = 0
KST2 010821Z 01015KT 08/M02 A3019 RMK A01 T00821020  RH  049%=      5-min Rain = 0
KST2 010822Z 01014KT 08/M02 A3019 RMK A01 T00811020  RH  049%=      5-min Rain = 0
KST2 010823Z 01013KT 08/M02 A3019 RMK A01 T00821020  RH  049%=      5-min Rain = 0
KST2 010824Z 02014KT 08/M02 A3019 RMK A01 T00811020  RH  049%=      5-min Rain = 0
KST2 010825Z 02016KT 08/M02 A3019 RMK A01 T00811019  RH  049%=      5-min Rain = 0
KST2 010826Z 02014KT 08/M02 A3019 RMK A01 T00811020  RH  049%=      5-min Rain = 0
KST2 010827Z 01014KT 08/M02 A3019 RMK A01 T00811020  RH  049%=      5-min Rain = 0
KST2 010828Z 00011KT 08/M02 A302 RMK A01 T00811020  RH  049%=      5-min Rain = 0
KST2 010829Z 01013KT 08/M02 A302 RMK A01 T00811019  RH  049%=      5-min Rain = 0
KST2 010830Z 00016KT 08/M02 A302 RMK A01 T00811020  RH  049%=      5-min Rain = 0
KST2 010831Z 01016KT 08/M02 A302 RMK A01 T00801021  RH  049%=      5-min Rain = 0
KST2 010832Z 01016KT 08/M02 A302 RMK A01 T00811020  RH  049%=      5-min Rain = 0
KST2 010833Z 01015KT 08/M02 A302 RMK A01 T00811019  RH  049%=      5-min Rain = 0
KST2 010834Z 00014KT 08/M02 A302 RMK A01 T00811018  RH  050%=      5-min Rain = 0
KST2 010835Z 00013KT 08/M02 A302 RMK A01 T00801017  RH  050%=      5-min Rain = 0
KST2 010836Z 00012KT 08/M02 A302 RMK A01 T00801017  RH  051%=      5-min Rain = 0
KST2 010837Z 00013KT 08/M02 A302 RMK A01 T00791017  RH  050%=      5-min Rain = 0
KST2 010838Z 01015KT 08/M02 A302 RMK A01 T00791018  RH  050%=      5-min Rain = 0
KST2 010839Z 02016KT 08/M02 A3021 RMK A01 T00791020  RH  049%=      5-min Rain = 0
KST2 010840Z 01016KT 08/M02 A3021 RMK A01 T00791020  RH  049%=      5-min Rain = 0
KST2 010841Z 01016KT 08/M02 A3021 RMK A01 T00791021  RH  049%=      5-min Rain = 0
KST2 010842Z 02015KT 08/M02 A3021 RMK A01 T00791021  RH  049%=      5-min Rain = 0
KST2 010843Z 01012KT 08/M02 A3022 RMK A01 T00791022  RH  049%=      5-min Rain = 0
KST2 010844Z 01010KT 08/M02 A3022 RMK A01 T00791021  RH  049%=      5-min Rain = 0
KST2 010845Z 02009KT 08/M02 A3022 RMK A01 T00791021  RH  049%=      5-min Rain = 0
KST2 010846Z 02008KT 08/M02 A3023 RMK A01 T00791020  RH  049%=      5-min Rain = 0
KST2 010847Z 02008KT 08/M02 A3023 RMK A01 T00791021  RH  049%=      5-min Rain = 0
KST2 010848Z 02008KT 08/M02 A3022 RMK A01 T00791020  RH  050%=      5-min Rain = 0
KST2 010849Z 02010KT 08/M02 A3022 RMK A01 T00781021  RH  049%=      5-min Rain = 0
KST2 010850Z 02011KT 08/M02 A3021 RMK A01 T00791021  RH  049%=      5-min Rain = 0
KST2 010851Z 02012KT 08/M02 A3021 RMK A01 T00791021  RH  049%=      5-min Rain = 0
KST2 010852Z 02013KT 08/M02 A302 RMK A01 T00791021  RH  049%=      5-min Rain = 0
KST2 010853Z 02015KT 08/M02 A302 RMK A01 T00781021  RH  049%=      5-min Rain = 0
KST2 010854Z 02015KT 08/M02 A3019 RMK A01 T00781021  RH  049%=      5-min Rain = 0
KST2 010855Z 02016KT 08/M02 A3018 RMK A01 T00781021  RH  050%=      5-min Rain = 0
KST2 010856Z 03014KT 08/M02 A3018 RMK A01 T00781017  RH  051%=      5-min Rain = 0
KST2 010857Z 02016KT 08/M02 A3018 RMK A01 T00771016  RH  052%=      5-min Rain = 0
KST2 010858Z 02018KT 08/M02 A3017 RMK A01 T00761017  RH  052%=      5-min Rain = 0
KST2 010859Z 02018KT 08/M02 A3017 RMK A01 T00761016  RH  052%=      5-min Rain = 0
KST2 010900Z 03018KT 08/M02 A3017 RMK A01 T00761016  RH  052%=      5-min Rain = 0
KST2 010901Z 03016KT 08/M02 A3017 RMK A01 T00751016  RH  052%=      5-min Rain = 0
KST2 010902Z 03015KT 08/M01 A3017 RMK A01 T00751013  RH  054%=      5-min Rain = 0
KST2 010903Z 03017KT 07/M01 A3018 RMK A01 T00741013  RH  054%=      5-min Rain = 0
KST2 010904Z 03015KT 07/M01 A3018 RMK A01 T00741012  RH  054%=      5-min Rain = 0
KST2 010905Z 04014KT 07/M01 A3018 RMK A01 T00731010  RH  055%=      5-min Rain = 0
KST2 010906Z 04014KT 07/M01 A3019 RMK A01 T00721009  RH  056%=      5-min Rain = 0
KST2 010907Z 03017KT 07/M01 A302 RMK A01 T00721009  RH  056%=      5-min Rain = 0
KST2 010908Z 03015KT 07/M01 A302 RMK A01 T00721010  RH  056%=      5-min Rain = 0
KST2 010909Z 03012KT 07/M01 A3021 RMK A01 T00711007  RH  058%=      5-min Rain = 0
KST2 010910Z 04012KT 07/M01 A3022 RMK A01 T00691005  RH  059%=      5-min Rain = 0
KST2 010911Z 03011KT 07/M01 A3022 RMK A01 T00681005  RH  059%=      5-min Rain = 0
KST2 010912Z 04011KT 07/M00 A3023 RMK A01 T00681003  RH  061%=      5-min Rain = 0
KST2 010913Z 04014KT 07/M01 A3023 RMK A01 T00671005  RH  060%=      5-min Rain = 0
KST2 010914Z 03011KT 07/M01 A3023 RMK A01 T00671005  RH  060%=      5-min Rain = 0
KST2 010915Z 03011KT 07/M00 A3024 RMK A01 T00661003  RH  061%=      5-min Rain = 0
KST2 010916Z 03010KT 07/M00 A3024 RMK A01 T00651001  RH  063%=      5-min Rain = 0
KST2 010917Z 03010KT 06/00 A3024 RMK A01 T00640001  RH  064%=      5-min Rain = 0
KST2 010918Z 03010KT 06/00 A3024 RMK A01 T00630003  RH  065%=      5-min Rain = 0
KST2 010919Z 03011KT 06/00 A3023 RMK A01 T00630004  RH  066%=      5-min Rain = 0
KST2 010920Z 03010KT 06/00 A3023 RMK A01 T00620004  RH  066%=      5-min Rain = 0
KST2 010921Z 03011KT 06/01 A3023 RMK A01 T00620006  RH  067%=      5-min Rain = 0
KST2 010922Z 03012KT 06/01 A3023 RMK A01 T00610005  RH  067%=      5-min Rain = 0.01
KST2 010923Z 02013KT 06/01 A3022 RMK A01 T00610007  RH  068%=      5-min Rain = 0
KST2 010924Z 02013KT 06/01 A3022 RMK A01 T00600009  RH  069%=      5-min Rain = 0
KST2 010925Z 03015KT 06/01 A3021 RMK A01 T00600006  RH  069%=      5-min Rain = 0
KST2 010926Z 02014KT 06/01 A3021 RMK A01 T00600007  RH  069%=      5-min Rain = 0
KST2 010927Z 02015KT 06/01 A302 RMK A01 T00600007  RH  069%=      5-min Rain = 0
KST2 010928Z 02014KT 06/01 A302 RMK A01 T00590009  RH  070%=      5-min Rain = 0.01
KST2 010929Z 02013KT 06/01 A302 RMK A01 T00580009  RH  071%=      5-min Rain = 0
KST2 010930Z 02014KT 06/01 A302 RMK A01 T00570010  RH  072%=      5-min Rain = 0
KST2 010931Z 02015KT 06/01 A302 RMK A01 T00560010  RH  072%=      5-min Rain = 0.01
KST2 010932Z 02014KT 06/01 A3019 RMK A01 T00560009  RH  072%=      5-min Rain = 0
KST2 010933Z 02014KT 06/01 A3019 RMK A01 T00550013  RH  074%=      5-min Rain = 0.01
KST2 010934Z 02014KT 05/01 A3019 RMK A01 T00540014  RH  075%=      5-min Rain = 0
KST2 010935Z 03014KT 05/01 A3019 RMK A01 T00530014  RH  076%=      5-min Rain = 0
KST2 010936Z 03013KT 05/02 A3019 RMK A01 T00530015  RH  077%=      5-min Rain = 0.01
KST2 010937Z 03014KT 05/02 A3019 RMK A01 T00520015  RH  077%=      5-min Rain = 0
KST2 010938Z 03014KT 05/02 A3019 RMK A01 T00530015  RH  077%=      5-min Rain = 0
KST2 010939Z 03016G21KT 05/02 A3019 RMK A01 T00520015  RH  077%=      5-min Rain = 0
KST2 010940Z 03020G25KT 05/01 A3019 RMK A01 T00530011  RH  074%=      5-min Rain = 0
KST2 010941Z 03018KT 05/01 A3019 RMK A01 T00540009  RH  073%=      5-min Rain = 0.01
KST2 010942Z 03018KT 05/01 A3019 RMK A01 T00540010  RH  073%=      5-min Rain = 0
KST2 010943Z 03019KT 05/01 A3019 RMK A01 T00530011  RH  074%=      5-min Rain = 0
KST2 010944Z 03021KT 05/01 A3018 RMK A01 T00530011  RH  075%=      5-min Rain = 0
KST2 010945Z 03020KT 05/01 A3018 RMK A01 T00520011  RH  075%=      5-min Rain = 0
KST2 010946Z 03021KT 05/01 A3018 RMK A01 T00520012  RH  075%=      5-min Rain = 0
KST2 010947Z 04022KT 05/01 A3019 RMK A01 T00520012  RH  075%=      5-min Rain = 0
KST2 010948Z 03015KT 05/01 A3019 RMK A01 T00520012  RH  075%=      5-min Rain = 0
KST2 010949Z 04018KT 05/02 A3019 RMK A01 T00520015  RH  077%=      5-min Rain = 0
KST2 010950Z 03017KT 05/01 A302 RMK A01 T00520014  RH  076%=      5-min Rain = 0
KST2 010951Z 03018KT 05/01 A302 RMK A01 T00520012  RH  076%=      5-min Rain = 0
KST2 010952Z 03017KT 05/01 A3019 RMK A01 T00520013  RH  076%=      5-min Rain = 0
KST2 010953Z 03018KT 05/01 A3019 RMK A01 T00510014  RH  077%=      5-min Rain = 0
KST2 010954Z 04017KT 05/01 A3018 RMK A01 T00500014  RH  077%=      5-min Rain = 0
KST2 010955Z 04018KT 05/01 A3018 RMK A01 T00500014  RH  078%=      5-min Rain = 0
KST2 010956Z 04016KT 05/01 A3019 RMK A01 T00500014  RH  078%=      5-min Rain = 0
KST2 010957Z 05016KT 05/01 A302 RMK A01 T00490014  RH  078%=      5-min Rain = 0
KST2 010958Z 04017KT 05/01 A302 RMK A01 T00500014  RH  077%=      5-min Rain = 0
KST2 010959Z 04013KT 05/01 A302 RMK A01 T00500013  RH  077%=      5-min Rain = 0
KST2 011000Z 04016KT 05/02 A3021 RMK A01 T00500015  RH  078%=      5-min Rain = 0
KST2 011001Z 04015KT 05/01 A3021 RMK A01 T00500014  RH  078%=      5-min Rain = 0
KST2 011002Z 04016KT 05/01 A3021 RMK A01 T00500014  RH  077%=      5-min Rain = 0
KST2 011003Z 04015KT 05/01 A3021 RMK A01 T00500013  RH  077%=      5-min Rain = 0
KST2 011004Z 04014KT 05/01 A3021 RMK A01 T00500014  RH  078%=      5-min Rain = 0
KST2 011005Z 04015KT 05/02 A3021 RMK A01 T00500016  RH  079%=      5-min Rain = 0
KST2 011006Z 05016KT 05/02 A3021 RMK A01 T00490016  RH  079%=      5-min Rain = 0
KST2 011007Z 05017KT 05/02 A3021 RMK A01 T00490015  RH  078%=      5-min Rain = 0.01
KST2 011008Z 05019KT 05/01 A3021 RMK A01 T00500014  RH  078%=      5-min Rain = 0
KST2 011009Z 05018KT 05/01 A3021 RMK A01 T00500013  RH  077%=      5-min Rain = 0
KST2 011010Z 05017KT 05/01 A3021 RMK A01 T00510013  RH  077%=      5-min Rain = 0
KST2 011011Z 05015KT 05/01 A302 RMK A01 T00510014  RH  077%=      5-min Rain = 0
KST2 011012Z 05015KT 05/02 A302 RMK A01 T00500015  RH  078%=      5-min Rain = 0
KST2 011013Z 06017KT 05/01 A302 RMK A01 T00500014  RH  078%=      5-min Rain = 0
KST2 011014Z 06015KT 05/01 A302 RMK A01 T00500013  RH  077%=      5-min Rain = 0
KST2 011015Z 06016KT 05/01 A302 RMK A01 T00500014  RH  078%=      5-min Rain = 0
KST2 011016Z 06014KT 05/01 A302 RMK A01 T00500014  RH  078%=      5-min Rain = 0
KST2 011017Z 06013KT 05/02 A302 RMK A01 T00490016  RH  079%=      5-min Rain = 0
KST2 011018Z 06014KT 05/02 A302 RMK A01 T00490017  RH  080%=      5-min Rain = 0
KST2 011019Z 06013KT 05/02 A3019 RMK A01 T00480016  RH  080%=      5-min Rain = 0
KST2 011020Z 06014KT 05/02 A302 RMK A01 T00480016  RH  079%=      5-min Rain = 0
KST2 011021Z 06014KT 05/02 A3019 RMK A01 T00480016  RH  079%=      5-min Rain = 0
KST2 011022Z 06015KT 05/02 A3019 RMK A01 T00480016  RH  079%=      5-min Rain = 0
KST2 011023Z 06016KT 05/02 A3019 RMK A01 T00490015  RH  079%=      5-min Rain = 0
KST2 011024Z 06015KT 05/02 A3019 RMK A01 T00490015  RH  078%=      5-min Rain = 0
KST2 011025Z 06017KT 05/01 A3019 RMK A01 T00490014  RH  078%=      5-min Rain = 0
KST2 011026Z 06017KT 05/01 A3019 RMK A01 T00500014  RH  078%=      5-min Rain = 0
KST2 011027Z 06016KT 05/01 A3019 RMK A01 T00500014  RH  078%=      5-min Rain = 0
KST2 011028Z 07017KT 05/02 A3018 RMK A01 T00500015  RH  078%=      5-min Rain = 0
KST2 011029Z 07016KT 05/02 A3018 RMK A01 T00500015  RH  078%=      5-min Rain = 0
KST2 011030Z 07016KT 05/02 A3018 RMK A01 T00500015  RH  078%=      5-min Rain = 0
KST2 011031Z 07016KT 05/02 A3018 RMK A01 T00500015  RH  078%=      5-min Rain = 0
KST2 011032Z 07016KT 05/02 A3018 RMK A01 T00500016  RH  079%=      5-min Rain = 0
KST2 011033Z 07016KT 05/02 A3018 RMK A01 T00500016  RH  079%=      5-min Rain = 0
KST2 011034Z 07016KT 05/02 A3018 RMK A01 T00500016  RH  079%=      5-min Rain = 0
KST2 011035Z 07014KT 05/02 A3018 RMK A01 T00500017  RH  079%=      5-min Rain = 0
KST2 011036Z 07014KT 05/02 A3018 RMK A01 T00500018  RH  080%=      5-min Rain = 0
KST2 011037Z 07016KT 05/02 A3018 RMK A01 T00500018  RH  080%=      5-min Rain = 0
KST2 011038Z 07014KT 05/02 A3018 RMK A01 T00500018  RH  080%=      5-min Rain = 0
KST2 011039Z 08015KT 05/02 A3018 RMK A01 T00510018  RH  079%=      5-min Rain = 0
KST2 011040Z 07015KT 05/02 A3019 RMK A01 T00510019  RH  079%=      5-min Rain = 0
KST2 011041Z 07015KT 05/02 A3019 RMK A01 T00520018  RH  079%=      5-min Rain = 0
KST2 011042Z 08014KT 05/02 A3019 RMK A01 T00520019  RH  079%=      5-min Rain = 0
KST2 011043Z 07013KT 05/02 A3019 RMK A01 T00520020  RH  079%=      5-min Rain = 0
KST2 011044Z 08013KT 05/02 A3019 RMK A01 T00530020  RH  080%=      5-min Rain = 0
KST2 011045Z 08014KT 05/02 A3019 RMK A01 T00530022  RH  080%=      5-min Rain = 0
KST2 011046Z 08014KT 05/02 A3019 RMK A01 T00530021  RH  080%=      5-min Rain = 0
KST2 011047Z 08013KT 05/02 A3019 RMK A01 T00530020  RH  080%=      5-min Rain = 0
KST2 011048Z 08014KT 05/02 A3019 RMK A01 T00530021  RH  080%=      5-min Rain = 0
KST2 011049Z 08014KT 05/02 A3019 RMK A01 T00530021  RH  080%=      5-min Rain = 0
KST2 011050Z 08014KT 05/02 A3019 RMK A01 T00520021  RH  080%=      5-min Rain = 0
KST2 011051Z 08015KT 05/02 A3019 RMK A01 T00520021  RH  080%=      5-min Rain = 0
KST2 011052Z 08014KT 05/02 A3019 RMK A01 T00520021  RH  080%=      5-min Rain = 0
KST2 011053Z 08013KT 05/02 A3019 RMK A01 T00520021  RH  081%=      5-min Rain = 0
KST2 011054Z 08014KT 05/02 A3019 RMK A01 T00510023  RH  082%=      5-min Rain = 0
KST2 011055Z 08014KT 05/02 A302 RMK A01 T00510021  RH  081%=      5-min Rain = 0
KST2 011056Z 07014KT 05/02 A302 RMK A01 T00510022  RH  081%=      5-min Rain = 0
KST2 011057Z 07013KT 05/02 A302 RMK A01 T00510021  RH  081%=      5-min Rain = 0
KST2 011058Z 07012KT 05/02 A302 RMK A01 T00510021  RH  081%=      5-min Rain = 0
KST2 011059Z 07013KT 05/02 A302 RMK A01 T00510021  RH  081%=      5-min Rain = 0
KST2 011100Z 07013KT 05/02 A3019 RMK A01 T00510021  RH  081%=      5-min Rain = 0
KST2 011101Z 06014KT 05/02 A3019 RMK A01 T00510021  RH  081%=      5-min Rain = 0
KST2 011102Z 06012KT 05/02 A3019 RMK A01 T00510021  RH  081%=      5-min Rain = 0
KST2 011103Z 07014G19KT 05/02 A3019 RMK A01 T00510022  RH  082%=      5-min Rain = 0
KST2 011104Z 07014KT 05/02 A3019 RMK A01 T00500021  RH  081%=      5-min Rain = 0
KST2 011105Z 06013KT 05/02 A302 RMK A01 T00500021  RH  082%=      5-min Rain = 0
KST2 011106Z 06013KT 05/02 A302 RMK A01 T00500021  RH  082%=      5-min Rain = 0
KST2 011107Z 07012KT 05/02 A302 RMK A01 T00500021  RH  082%=      5-min Rain = 0
KST2 011108Z 07012KT 05/02 A302 RMK A01 T00500022  RH  082%=      5-min Rain = 0
KST2 011109Z 07011KT 05/02 A302 RMK A01 T00500023  RH  082%=      5-min Rain = 0
KST2 011110Z 08012KT 05/02 A302 RMK A01 T00500023  RH  083%=      5-min Rain = 0
KST2 011111Z 07014KT 05/02 A302 RMK A01 T00500022  RH  082%=      5-min Rain = 0
KST2 011112Z 07012KT 05/02 A302 RMK A01 T00500022  RH  082%=      5-min Rain = 0
KST2 011113Z 07012KT 05/02 A302 RMK A01 T00500022  RH  082%=      5-min Rain = 0
KST2 011114Z 08013KT 05/02 A302 RMK A01 T00510021  RH  081%=      5-min Rain = 0
KST2 011115Z 08011KT 05/02 A302 RMK A01 T00500022  RH  082%=      5-min Rain = 0
KST2 011116Z 08013KT 05/02 A3019 RMK A01 T00500021  RH  081%=      5-min Rain = 0
KST2 011117Z 09012KT 05/02 A302 RMK A01 T00500020  RH  081%=      5-min Rain = 0
KST2 011118Z 09012KT 05/02 A302 RMK A01 T00500020  RH  081%=      5-min Rain = 0
KST2 011119Z 09013KT 05/02 A302 RMK A01 T00500019  RH  080%=      5-min Rain = 0
KST2 011120Z 08014KT 05/02 A302 RMK A01 T00500017  RH  079%=      5-min Rain = 0
KST2 011121Z 08014KT 05/02 A302 RMK A01 T00500015  RH  078%=      5-min Rain = 0
KST2 011122Z 09013G18KT 05/02 A302 RMK A01 T00510015  RH  077%=      5-min Rain = 0
KST2 011123Z 08013KT 05/02 A302 RMK A01 T00510016  RH  078%=      5-min Rain = 0
KST2 011124Z 08013KT 05/01 A302 RMK A01 T00510014  RH  077%=      5-min Rain = 0
KST2 011125Z 08014KT 05/02 A302 RMK A01 T00520015  RH  077%=      5-min Rain = 0
KST2 011126Z 07014KT 05/02 A3019 RMK A01 T00520015  RH  077%=      5-min Rain = 0
KST2 011127Z 08013KT 05/02 A3019 RMK A01 T00520015  RH  077%=      5-min Rain = 0
KST2 011128Z 08014KT 05/01 A302 RMK A01 T00520014  RH  077%=      5-min Rain = 0
KST2 011129Z 07013KT 05/01 A302 RMK A01 T00520014  RH  076%=      5-min Rain = 0
KST2 011130Z 08011KT 05/01 A302 RMK A01 T00520014  RH  077%=      5-min Rain = 0
KST2 011131Z 08012KT 05/02 A302 RMK A01 T00520015  RH  077%=      5-min Rain = 0
KST2 011132Z 08012KT 05/01 A302 RMK A01 T00520014  RH  077%=      5-min Rain = 0
KST2 011133Z 08012KT 05/01 A302 RMK A01 T00520014  RH  077%=      5-min Rain = 0
KST2 011134Z 08013KT 05/01 A302 RMK A01 T00520013  RH  076%=      5-min Rain = 0
KST2 011135Z 07011KT 05/01 A302 RMK A01 T00520014  RH  076%=      5-min Rain = 0
KST2 011136Z 07012KT 05/01 A302 RMK A01 T00520013  RH  076%=      5-min Rain = 0
KST2 011137Z 07012KT 05/01 A302 RMK A01 T00530013  RH  076%=      5-min Rain = 0
KST2 011138Z 07011KT 05/01 A302 RMK A01 T00530013  RH  075%=      5-min Rain = 0
KST2 011139Z 07012KT 05/01 A3021 RMK A01 T00530013  RH  075%=      5-min Rain = 0
KST2 011140Z 06010KT 05/01 A3021 RMK A01 T00530012  RH  075%=      5-min Rain = 0
KST2 011141Z 06010KT 05/01 A3021 RMK A01 T00530013  RH  075%=      5-min Rain = 0
KST2 011142Z 06009KT 05/01 A3021 RMK A01 T00530013  RH  075%=      5-min Rain = 0
KST2 011143Z 05009KT 05/01 A3022 RMK A01 T00540013  RH  075%=      5-min Rain = 0
KST2 011144Z 04009KT 05/01 A3022 RMK A01 T00530014  RH  076%=      5-min Rain = 0
KST2 011145Z 02008KT 05/02 A3022 RMK A01 T00530015  RH  076%=      5-min Rain = 0
KST2 011146Z 01010KT 05/02 A3023 RMK A01 T00530017  RH  077%=      5-min Rain = 0
KST2 011147Z 00011KT 05/02 A3023 RMK A01 T00520018  RH  079%=      5-min Rain = 0
KST2 011148Z 36011KT 05/02 A3023 RMK A01 T00520020  RH  080%=      5-min Rain = 0
KST2 011149Z 35011KT 05/02 A3023 RMK A01 T00520021  RH  080%=      5-min Rain = 0
KST2 011150Z 35011KT 05/02 A3023 RMK A01 T00510022  RH  081%=      5-min Rain = 0
KST2 011151Z 34011KT 05/02 A3023 RMK A01 T00510023  RH  082%=      5-min Rain = 0
KST2 011152Z 35010KT 05/02 A3023 RMK A01 T00510024  RH  083%=      5-min Rain = 0
KST2 011153Z 35011KT 05/03 A3023 RMK A01 T00500025  RH  084%=      5-min Rain = 0
KST2 011154Z 34011KT 05/03 A3023 RMK A01 T00500026  RH  084%=      5-min Rain = 0
KST2 011155Z 34011KT 05/03 A3023 RMK A01 T00500027  RH  085%=      5-min Rain = 0
KST2 011156Z 34012KT 05/03 A3023 RMK A01 T00500029  RH  086%=      5-min Rain = 0
KST2 011157Z 35011KT 05/03 A3023 RMK A01 T00490028  RH  087%=      5-min Rain = 0
KST2 011158Z 35012KT 05/03 A3023 RMK A01 T00490029  RH  087%=      5-min Rain = 0
KST2 011159Z 35011KT 05/03 A3023 RMK A01 T00480029  RH  087%=      5-min Rain = 0
KST2 011200Z 35013KT 05/03 A3023 RMK A01 T00480029  RH  087%=      5-min Rain = 0
KST2 011201Z 36010KT 05/03 A3023 RMK A01 T00480029  RH  087%=      5-min Rain = 0
KST2 011202Z 00011KT 05/03 A3023 RMK A01 T00470029  RH  088%=      5-min Rain = 0
KST2 011203Z 00011KT 05/03 A3023 RMK A01 T00470028  RH  088%=      5-min Rain = 0
KST2 011204Z 00012KT 05/03 A3024 RMK A01 T00470028  RH  087%=      5-min Rain = 0
KST2 011205Z 00011KT 05/03 A3024 RMK A01 T00470027  RH  087%=      5-min Rain = 0
KST2 011206Z 00012KT 05/03 A3023 RMK A01 T00470027  RH  087%=      5-min Rain = 0
KST2 011207Z 00011KT 05/03 A3023 RMK A01 T00470027  RH  087%=      5-min Rain = 0
KST2 011208Z 01011KT 05/03 A3023 RMK A01 T00470027  RH  087%=      5-min Rain = 0
KST2 011209Z 01014KT 05/03 A3023 RMK A01 T00460026  RH  086%=      5-min Rain = 0
KST2 011210Z 01015KT 05/02 A3023 RMK A01 T00460024  RH  085%=      5-min Rain = 0
KST2 011211Z 01013KT 05/02 A3023 RMK A01 T00460023  RH  085%=      5-min Rain = 0
KST2 011212Z 01013KT 05/02 A3023 RMK A01 T00460024  RH  085%=      5-min Rain = 0
KST2 011213Z 01013KT 05/02 A3023 RMK A01 T00460024  RH  085%=      5-min Rain = 0
KST2 011214Z 01014KT 05/02 A3023 RMK A01 T00460024  RH  086%=      5-min Rain = 0
KST2 011215Z 01014KT 05/02 A3023 RMK A01 T00460023  RH  085%=      5-min Rain = 0
KST2 011216Z 01012KT 05/02 A3024 RMK A01 T00460024  RH  086%=      5-min Rain = 0
KST2 011217Z 00014KT 05/03 A3024 RMK A01 T00460025  RH  086%=      5-min Rain = 0
KST2 011218Z 00013KT 05/02 A3024 RMK A01 T00450023  RH  085%=      5-min Rain = 0
KST2 011219Z 00013KT 05/02 A3024 RMK A01 T00450023  RH  086%=      5-min Rain = 0
KST2 011220Z 00013KT 05/02 A3024 RMK A01 T00450023  RH  086%=      5-min Rain = 0
KST2 011221Z 00014KT 05/02 A3024 RMK A01 T00450023  RH  085%=      5-min Rain = 0
KST2 011222Z 00013KT 05/02 A3024 RMK A01 T00450023  RH  085%=      5-min Rain = 0
KST2 011223Z 00012KT 05/02 A3024 RMK A01 T00450023  RH  086%=      5-min Rain = 0
KST2 011224Z 01013KT 05/02 A3024 RMK A01 T00450024  RH  086%=      5-min Rain = 0
KST2 011225Z 01014KT 05/02 A3024 RMK A01 T00450023  RH  085%=      5-min Rain = 0
KST2 011226Z 01013KT 05/02 A3024 RMK A01 T00450023  RH  085%=      5-min Rain = 0
KST2 011227Z 01013KT 05/02 A3024 RMK A01 T00450022  RH  085%=      5-min Rain = 0
KST2 011228Z 01014KT 05/02 A3024 RMK A01 T00450022  RH  085%=      5-min Rain = 0
KST2 011229Z 00013KT 05/02 A3024 RMK A01 T00450022  RH  085%=      5-min Rain = 0
KST2 011230Z 01012KT 05/02 A3024 RMK A01 T00450022  RH  085%=      5-min Rain = 0
KST2 011231Z 01011KT 05/02 A3024 RMK A01 T00450023  RH  085%=      5-min Rain = 0
KST2 011232Z 01013KT 05/02 A3025 RMK A01 T00450022  RH  085%=      5-min Rain = 0
KST2 011233Z 01013KT 05/02 A3025 RMK A01 T00450021  RH  085%=      5-min Rain = 0
KST2 011234Z 01012KT 05/02 A3025 RMK A01 T00450021  RH  085%=      5-min Rain = 0
KST2 011235Z 01013KT 05/02 A3025 RMK A01 T00450022  RH  085%=      5-min Rain = 0
KST2 011236Z 01015KT 05/02 A3025 RMK A01 T00450020  RH  084%=      5-min Rain = 0
KST2 011237Z 01014KT 05/02 A3025 RMK A01 T00450019  RH  083%=      5-min Rain = 0
KST2 011238Z 01013KT 05/02 A3025 RMK A01 T00450019  RH  084%=      5-min Rain = 0
KST2 011239Z 01014KT 05/02 A3025 RMK A01 T00450020  RH  084%=      5-min Rain = 0
KST2 011240Z 02013KT 05/02 A3025 RMK A01 T00450020  RH  084%=      5-min Rain = 0
KST2 011241Z 01014KT 05/02 A3025 RMK A01 T00450020  RH  084%=      5-min Rain = 0
KST2 011242Z 02014KT 05/02 A3025 RMK A01 T00450020  RH  084%=      5-min Rain = 0
KST2 011243Z 01012KT 05/02 A3025 RMK A01 T00450020  RH  084%=      5-min Rain = 0
KST2 011244Z 02011KT 05/02 A3025 RMK A01 T00450021  RH  084%=      5-min Rain = 0
KST2 011245Z 02012KT 05/02 A3025 RMK A01 T00450021  RH  084%=      5-min Rain = 0
KST2 011246Z 02013KT 05/02 A3025 RMK A01 T00450021  RH  085%=      5-min Rain = 0
KST2 011247Z 02012KT 05/02 A3025 RMK A01 T00450020  RH  084%=      5-min Rain = 0
KST2 011248Z 02012KT 05/02 A3025 RMK A01 T00450019  RH  083%=      5-min Rain = 0
KST2 011249Z 02013KT 05/02 A3026 RMK A01 T00450019  RH  084%=      5-min Rain = 0
KST2 011250Z 02013KT 05/02 A3026 RMK A01 T00450018  RH  083%=      5-min Rain = 0
KST2 011251Z 02013KT 05/02 A3026 RMK A01 T00450018  RH  083%=      5-min Rain = 0
KST2 011252Z 02012KT 05/02 A3026 RMK A01 T00450017  RH  082%=      5-min Rain = 0
KST2 011253Z 02012KT 05/02 A3026 RMK A01 T00460018  RH  082%=      5-min Rain = 0
KST2 011254Z 02012KT 05/02 A3027 RMK A01 T00450018  RH  082%=      5-min Rain = 0
KST2 011255Z 02013KT 05/02 A3027 RMK A01 T00450017  RH  082%=      5-min Rain = 0
KST2 011256Z 01012KT 05/02 A3027 RMK A01 T00450017  RH  082%=      5-min Rain = 0
KST2 011257Z 01012KT 05/02 A3027 RMK A01 T00450016  RH  082%=      5-min Rain = 0
KST2 011258Z 01011KT 05/02 A3027 RMK A01 T00460018  RH  082%=      5-min Rain = 0
KST2 011259Z 01011KT 05/02 A3027 RMK A01 T00460019  RH  083%=      5-min Rain = 0
KST2 011300Z 01012KT 05/02 A3027 RMK A01 T00460019  RH  082%=      5-min Rain = 0
KST2 011301Z 01010KT 05/02 A3027 RMK A01 T00460018  RH  082%=      5-min Rain = 0
KST2 011302Z 01012KT 05/02 A3027 RMK A01 T00460018  RH  082%=      5-min Rain = 0
KST2 011303Z 00012KT 05/02 A3027 RMK A01 T00460017  RH  082%=      5-min Rain = 0
KST2 011304Z 01013KT 05/02 A3027 RMK A01 T00460017  RH  081%=      5-min Rain = 0
KST2 011305Z 02014KT 05/02 A3027 RMK A01 T00460015  RH  081%=      5-min Rain = 0
KST2 011306Z 02015KT 05/02 A3027 RMK A01 T00460015  RH  081%=      5-min Rain = 0
KST2 011307Z 02014KT 05/02 A3026 RMK A01 T00460016  RH  081%=      5-min Rain = 0
KST2 011308Z 02015KT 05/02 A3026 RMK A01 T00460016  RH  081%=      5-min Rain = 0
KST2 011309Z 02015KT 05/02 A3026 RMK A01 T00460017  RH  081%=      5-min Rain = 0
KST2 011310Z 02017KT 05/02 A3026 RMK A01 T00460016  RH  081%=      5-min Rain = 0
KST2 011311Z 02016KT 05/02 A3026 RMK A01 T00460015  RH  081%=      5-min Rain = 0
KST2 011312Z 02017KT 05/02 A3027 RMK A01 T00460015  RH  080%=      5-min Rain = 0
KST2 011313Z 02015KT 05/02 A3027 RMK A01 T00460015  RH  081%=      5-min Rain = 0
KST2 011314Z 02015KT 05/02 A3027 RMK A01 T00460015  RH  081%=      5-min Rain = 0
KST2 011315Z 02014KT 05/02 A3027 RMK A01 T00460015  RH  081%=      5-min Rain = 0
KST2 011316Z 01014KT 05/02 A3027 RMK A01 T00460016  RH  081%=      5-min Rain = 0
KST2 011317Z 01015KT 05/02 A3027 RMK A01 T00460015  RH  081%=      5-min Rain = 0
KST2 011318Z 02014KT 05/01 A3027 RMK A01 T00460014  RH  080%=      5-min Rain = 0
KST2 011319Z 02015KT 05/01 A3027 RMK A01 T00460013  RH  079%=      5-min Rain = 0
KST2 011320Z 01013KT 05/01 A3027 RMK A01 T00460013  RH  079%=      5-min Rain = 0
KST2 011321Z 01012KT 05/01 A3028 RMK A01 T00460014  RH  080%=      5-min Rain = 0
KST2 011322Z 00011KT 05/02 A3028 RMK A01 T00460015  RH  080%=      5-min Rain = 0
KST2 011323Z 00010KT 05/02 A3028 RMK A01 T00460015  RH  080%=      5-min Rain = 0
KST2 011324Z 36008KT 05/02 A3028 RMK A01 T00460016  RH  081%=      5-min Rain = 0
KST2 011325Z 00009KT 05/02 A3028 RMK A01 T00460017  RH  081%=      5-min Rain = 0
KST2 011326Z 00010KT 05/02 A3028 RMK A01 T00460016  RH  081%=      5-min Rain = 0
KST2 011327Z 36009KT 05/02 A3029 RMK A01 T00460016  RH  081%=      5-min Rain = 0
KST2 011328Z 01010KT 05/02 A3028 RMK A01 T00460016  RH  081%=      5-min Rain = 0
KST2 011329Z 01010KT 05/02 A3028 RMK A01 T00460017  RH  081%=      5-min Rain = 0
KST2 011330Z 01011KT 05/02 A3028 RMK A01 T00460017  RH  082%=      5-min Rain = 0
KST2 011331Z 01012KT 05/02 A3028 RMK A01 T00460017  RH  082%=      5-min Rain = 0
KST2 011332Z 01012KT 05/02 A3028 RMK A01 T00460016  RH  081%=      5-min Rain = 0
KST2 011333Z 01013KT 05/02 A3028 RMK A01 T00460016  RH  081%=      5-min Rain = 0
KST2 011334Z 01013KT 05/02 A3028 RMK A01 T00460016  RH  081%=      5-min Rain = 0
KST2 011335Z 01013KT 05/02 A3028 RMK A01 T00460015  RH  081%=      5-min Rain = 0
KST2 011336Z 01011KT 05/02 A3028 RMK A01 T00460015  RH  080%=      5-min Rain = 0
KST2 011337Z 01011KT 05/02 A3028 RMK A01 T00460015  RH  080%=      5-min Rain = 0
KST2 011338Z 01011KT 05/02 A3029 RMK A01 T00460015  RH  080%=      5-min Rain = 0
KST2 011339Z 01010KT 05/02 A3029 RMK A01 T00470015  RH  080%=      5-min Rain = 0
KST2 011340Z 01010KT 05/01 A3029 RMK A01 T00470014  RH  080%=      5-min Rain = 0
KST2 011341Z 01009KT 05/01 A3029 RMK A01 T00470014  RH  079%=      5-min Rain = 0
KST2 011342Z 01011KT 05/02 A3029 RMK A01 T00470015  RH  080%=      5-min Rain = 0
KST2 011343Z 01011KT 05/02 A3029 RMK A01 T00470015  RH  080%=      5-min Rain = 0
KST2 011344Z 01012KT 05/01 A3029 RMK A01 T00470014  RH  079%=      5-min Rain = 0
KST2 011345Z 01011KT 05/01 A3029 RMK A01 T00470014  RH  079%=      5-min Rain = 0
KST2 011346Z 02009KT 05/02 A3029 RMK A01 T00470015  RH  080%=      5-min Rain = 0
KST2 011347Z 01010KT 05/02 A3029 RMK A01 T00470016  RH  080%=      5-min Rain = 0
KST2 011348Z 01010KT 05/02 A3029 RMK A01 T00470015  RH  080%=      5-min Rain = 0
KST2 011349Z 01008KT 05/02 A303 RMK A01 T00470015  RH  080%=      5-min Rain = 0
KST2 011350Z 01009KT 05/02 A303 RMK A01 T00470016  RH  081%=      5-min Rain = 0
KST2 011351Z 00007KT 05/02 A303 RMK A01 T00470015  RH  080%=      5-min Rain = 0
KST2 011352Z 36008KT 05/02 A303 RMK A01 T00470016  RH  080%=      5-min Rain = 0
KST2 011353Z 36008KT 05/02 A3031 RMK A01 T00470015  RH  080%=      5-min Rain = 0
KST2 011354Z 00009KT 05/01 A3031 RMK A01 T00470014  RH  079%=      5-min Rain = 0
KST2 011355Z 00009KT 05/01 A3031 RMK A01 T00480013  RH  078%=      5-min Rain = 0
KST2 011356Z 00008KT 05/02 A3031 RMK A01 T00480015  RH  079%=      5-min Rain = 0
KST2 011357Z 00009KT 05/02 A3031 RMK A01 T00480017  RH  080%=      5-min Rain = 0
KST2 011358Z 01011KT 05/01 A3031 RMK A01 T00480014  RH  079%=      5-min Rain = 0
KST2 011359Z 02010KT 05/01 A3031 RMK A01 T00480013  RH  078%=      5-min Rain = 0
KST2 011400Z 02010KT 05/01 A3031 RMK A01 T00480014  RH  078%=      5-min Rain = 0
KST2 011401Z 02010KT 05/01 A303 RMK A01 T00480014  RH  079%=      5-min Rain = 0
KST2 011402Z 02012KT 05/01 A303 RMK A01 T00480014  RH  078%=      5-min Rain = 0
KST2 011403Z 02012KT 05/01 A303 RMK A01 T00480014  RH  078%=      5-min Rain = 0
KST2 011404Z 02011KT 05/01 A303 RMK A01 T00480013  RH  078%=      5-min Rain = 0
KST2 011405Z 02011KT 05/01 A3031 RMK A01 T00480014  RH  078%=      5-min Rain = 0
KST2 011406Z 02010KT 05/01 A3031 RMK A01 T00480013  RH  078%=      5-min Rain = 0
KST2 011407Z 01008KT 05/01 A3031 RMK A01 T00480014  RH  079%=      5-min Rain = 0
KST2 011408Z 01009KT 05/02 A3031 RMK A01 T00480015  RH  079%=      5-min Rain = 0
KST2 011409Z 02010KT 05/01 A3031 RMK A01 T00470014  RH  079%=      5-min Rain = 0
KST2 011410Z 01009KT 05/01 A3031 RMK A01 T00470011  RH  078%=      5-min Rain = 0
KST2 011411Z 02010KT 05/01 A3031 RMK A01 T00480013  RH  078%=      5-min Rain = 0
KST2 011412Z 02011KT 05/01 A3031 RMK A01 T00480012  RH  078%=      5-min Rain = 0
KST2 011413Z 02011KT 05/01 A3031 RMK A01 T00480012  RH  078%=      5-min Rain = 0
KST2 011414Z 02012KT 05/01 A3031 RMK A01 T00470012  RH  078%=      5-min Rain = 0
KST2 011415Z 02014KT 05/01 A3031 RMK A01 T00480012  RH  077%=      5-min Rain = 0
KST2 011416Z 02013KT 05/01 A3031 RMK A01 T00480010  RH  077%=      5-min Rain = 0
KST2 011417Z 02012KT 05/01 A303 RMK A01 T00470010  RH  077%=      5-min Rain = 0
KST2 011418Z 02011KT 05/01 A303 RMK A01 T00480014  RH  079%=      5-min Rain = 0
KST2 011419Z 02011KT 05/02 A303 RMK A01 T00470015  RH  079%=      5-min Rain = 0
KST2 011420Z 02011KT 05/01 A303 RMK A01 T00470014  RH  079%=      5-min Rain = 0
KST2 011421Z 02011KT 05/02 A303 RMK A01 T00470015  RH  079%=      5-min Rain = 0
KST2 011422Z 02012KT 05/01 A303 RMK A01 T00480014  RH  079%=      5-min Rain = 0
KST2 011423Z 02010KT 05/01 A3031 RMK A01 T00480012  RH  078%=      5-min Rain = 0
KST2 011424Z 02010KT 05/01 A3031 RMK A01 T00480014  RH  079%=      5-min Rain = 0
KST2 011425Z 02010KT 05/01 A3031 RMK A01 T00470013  RH  078%=      5-min Rain = 0
KST2 011426Z 01010KT 05/01 A3031 RMK A01 T00470012  RH  078%=      5-min Rain = 0
KST2 011427Z 01010KT 05/01 A3031 RMK A01 T00480013  RH  078%=      5-min Rain = 0
KST2 011428Z 01010KT 05/01 A3031 RMK A01 T00480014  RH  078%=      5-min Rain = 0
KST2 011429Z 01009KT 05/02 A3031 RMK A01 T00490015  RH  079%=      5-min Rain = 0
KST2 011430Z 01010KT 05/02 A3032 RMK A01 T00480015  RH  079%=      5-min Rain = 0
KST2 011431Z 01011KT 05/01 A3032 RMK A01 T00480014  RH  078%=      5-min Rain = 0
KST2 011432Z 01012KT 05/01 A3032 RMK A01 T00490013  RH  078%=      5-min Rain = 0
KST2 011433Z 01012KT 05/01 A3032 RMK A01 T00480012  RH  077%=      5-min Rain = 0
KST2 011434Z 01012KT 05/01 A3031 RMK A01 T00480011  RH  077%=      5-min Rain = 0
KST2 011435Z 01014KT 05/01 A3031 RMK A01 T00490012  RH  077%=      5-min Rain = 0
KST2 011436Z 01013KT 05/01 A3031 RMK A01 T00490012  RH  077%=      5-min Rain = 0
KST2 011437Z 01013KT 05/01 A3031 RMK A01 T00490013  RH  077%=      5-min Rain = 0
KST2 011438Z 01015KT 05/01 A3031 RMK A01 T00490012  RH  077%=      5-min Rain = 0
KST2 011439Z 02013KT 05/01 A303 RMK A01 T00490012  RH  077%=      5-min Rain = 0
KST2 011440Z 02016KT 05/01 A303 RMK A01 T00490012  RH  077%=      5-min Rain = 0
KST2 011441Z 02015KT 05/01 A303 RMK A01 T00490010  RH  076%=      5-min Rain = 0
KST2 011442Z 02015KT 05/01 A303 RMK A01 T00490010  RH  076%=      5-min Rain = 0
KST2 011443Z 02014KT 05/01 A303 RMK A01 T00490011  RH  076%=      5-min Rain = 0
KST2 011444Z 02013KT 05/01 A303 RMK A01 T00490012  RH  077%=      5-min Rain = 0
KST2 011445Z 01012KT 05/01 A303 RMK A01 T00490012  RH  077%=      5-min Rain = 0
KST2 011446Z 01013KT 05/01 A3031 RMK A01 T00500011  RH  076%=      5-min Rain = 0
KST2 011447Z 01012KT 05/01 A3031 RMK A01 T00490011  RH  076%=      5-min Rain = 0
KST2 011448Z 00011KT 05/01 A3031 RMK A01 T00490013  RH  077%=      5-min Rain = 0
KST2 011449Z 00011KT 05/01 A3031 RMK A01 T00490012  RH  077%=      5-min Rain = 0
KST2 011450Z 01011KT 05/01 A3031 RMK A01 T00500013  RH  077%=      5-min Rain = 0
KST2 011451Z 01011KT 05/01 A3031 RMK A01 T00490013  RH  077%=      5-min Rain = 0
KST2 011452Z 02011KT 05/01 A3031 RMK A01 T00500014  RH  078%=      5-min Rain = 0
KST2 011453Z 01012KT 05/01 A3031 RMK A01 T00500014  RH  078%=      5-min Rain = 0
KST2 011454Z 01014KT 05/01 A3031 RMK A01 T00500011  RH  076%=      5-min Rain = 0
KST2 011455Z 01015KT 05/01 A3031 RMK A01 T00500011  RH  076%=      5-min Rain = 0
KST2 011456Z 01015KT 05/01 A3031 RMK A01 T00500010  RH  076%=      5-min Rain = 0
KST2 011457Z 01012KT 05/01 A3031 RMK A01 T00500011  RH  076%=      5-min Rain = 0
KST2 011458Z 02012KT 05/01 A3031 RMK A01 T00500014  RH  078%=      5-min Rain = 0
KST2 011459Z 01014KT 05/01 A3031 RMK A01 T00500014  RH  078%=      5-min Rain = 0
KST2 011500Z 01015KT 05/01 A3031 RMK A01 T00500011  RH  076%=      5-min Rain = 0
KST2 011501Z 01012KT 05/01 A3031 RMK A01 T00500011  RH  076%=      5-min Rain = 0
KST2 011502Z 02015KT 05/01 A3031 RMK A01 T00510014  RH  077%=      5-min Rain = 0
KST2 011503Z 01013KT 05/01 A3031 RMK A01 T00510011  RH  075%=      5-min Rain = 0
KST2 011504Z 01012KT 05/01 A3031 RMK A01 T00510012  RH  076%=      5-min Rain = 0
KST2 011505Z 01012KT 05/01 A3032 RMK A01 T00510011  RH  075%=      5-min Rain = 0
KST2 011506Z 01012KT 05/01 A3032 RMK A01 T00510012  RH  075%=      5-min Rain = 0
KST2 011507Z 02012KT 05/01 A3032 RMK A01 T00510013  RH  076%=      5-min Rain = 0
KST2 011508Z 01010KT 05/02 A3032 RMK A01 T00510015  RH  078%=      5-min Rain = 0
KST2 011509Z 01011KT 05/02 A3032 RMK A01 T00520016  RH  077%=      5-min Rain = 0
KST2 011510Z 02011KT 05/02 A3032 RMK A01 T00520015  RH  077%=      5-min Rain = 0
KST2 011511Z 02012KT 05/02 A3032 RMK A01 T00520016  RH  078%=      5-min Rain = 0
KST2 011512Z 02014KT 05/02 A3032 RMK A01 T00520015  RH  077%=      5-min Rain = 0
KST2 011513Z 01014KT 05/01 A3032 RMK A01 T00520014  RH  077%=      5-min Rain = 0
KST2 011514Z 01016KT 05/01 A3032 RMK A01 T00510013  RH  076%=      5-min Rain = 0
KST2 011515Z 01015KT 05/01 A3032 RMK A01 T00510012  RH  076%=      5-min Rain = 0
KST2 011516Z 02015KT 05/01 A3032 RMK A01 T00510012  RH  076%=      5-min Rain = 0
KST2 011517Z 01017KT 05/01 A3032 RMK A01 T00510011  RH  075%=      5-min Rain = 0
KST2 011518Z 02017KT 05/01 A3032 RMK A01 T00510010  RH  075%=      5-min Rain = 0
KST2 011519Z 02016KT 05/01 A3031 RMK A01 T00510011  RH  075%=      5-min Rain = 0
KST2 011520Z 01015KT 05/01 A3031 RMK A01 T00510012  RH  076%=      5-min Rain = 0
KST2 011521Z 01016KT 05/01 A3031 RMK A01 T00510012  RH  076%=      5-min Rain = 0
KST2 011522Z 01017KT 05/01 A3031 RMK A01 T00520012  RH  076%=      5-min Rain = 0
KST2 011523Z 02016KT 05/01 A3031 RMK A01 T00520011  RH  075%=      5-min Rain = 0
KST2 011524Z 01015KT 05/01 A3031 RMK A01 T00520013  RH  076%=      5-min Rain = 0
KST2 011525Z 01012KT 05/01 A3032 RMK A01 T00520013  RH  076%=      5-min Rain = 0
KST2 011526Z 01014KT 05/02 A3032 RMK A01 T00530015  RH  076%=      5-min Rain = 0
KST2 011527Z 01014KT 05/01 A3032 RMK A01 T00530013  RH  075%=      5-min Rain = 0
KST2 011528Z 02013KT 05/01 A3033 RMK A01 T00530013  RH  075%=      5-min Rain = 0
KST2 011529Z 02014KT 05/01 A3033 RMK A01 T00530011  RH  074%=      5-min Rain = 0
KST2 011530Z 02013KT 05/01 A3033 RMK A01 T00540011  RH  074%=      5-min Rain = 0
KST2 011531Z 01013KT 05/01 A3033 RMK A01 T00540014  RH  075%=      5-min Rain = 0
KST2 011532Z 01013KT 05/01 A3034 RMK A01 T00540014  RH  075%=      5-min Rain = 0
KST2 011533Z 01011KT 06/01 A3034 RMK A01 T00550013  RH  075%=      5-min Rain = 0
KST2 011534Z 00011KT 06/02 A3034 RMK A01 T00550019  RH  077%=      5-min Rain = 0
KST2 011535Z 00013KT 06/02 A3034 RMK A01 T00560016  RH  075%=      5-min Rain = 0
KST2 011536Z 00015KT 06/02 A3034 RMK A01 T00560015  RH  075%=      5-min Rain = 0
KST2 011537Z 36013KT 06/01 A3034 RMK A01 T00560014  RH  074%=      5-min Rain = 0
KST2 011538Z 36014KT 06/01 A3034 RMK A01 T00560014  RH  074%=      5-min Rain = 0
KST2 011539Z 01014KT 06/01 A3034 RMK A01 T00560012  RH  073%=      5-min Rain = 0
KST2 011540Z 01014KT 06/02 A3034 RMK A01 T00560015  RH  075%=      5-min Rain = 0
KST2 011541Z 00015KT 06/01 A3034 RMK A01 T00560013  RH  074%=      5-min Rain = 0
KST2 011542Z 01015KT 06/01 A3034 RMK A01 T00560012  RH  073%=      5-min Rain = 0
KST2 011543Z 01013KT 06/01 A3034 RMK A01 T00560013  RH  074%=      5-min Rain = 0
KST2 011544Z 00013KT 06/02 A3034 RMK A01 T00570016  RH  075%=      5-min Rain = 0
KST2 011545Z 01014KT 06/02 A3034 RMK A01 T00580015  RH  074%=      5-min Rain = 0
KST2 011546Z 01013KT 06/01 A3034 RMK A01 T00580013  RH  073%=      5-min Rain = 0
KST2 011547Z 00014KT 06/01 A3034 RMK A01 T00580013  RH  073%=      5-min Rain = 0
KST2 011548Z 00013KT 06/01 A3034 RMK A01 T00580012  RH  072%=      5-min Rain = 0
KST2 011549Z 00013KT 06/01 A3034 RMK A01 T00580013  RH  073%=      5-min Rain = 0
KST2 011550Z 01013KT 06/01 A3034 RMK A01 T00590014  RH  073%=      5-min Rain = 0
KST2 011551Z 01012KT 06/02 A3034 RMK A01 T00590016  RH  074%=      5-min Rain = 0
KST2 011552Z 36012KT 06/02 A3034 RMK A01 T00600018  RH  074%=      5-min Rain = 0
KST2 011553Z 36013KT 06/02 A3034 RMK A01 T00610015  RH  073%=      5-min Rain = 0
KST2 011554Z 00014KT 06/01 A3034 RMK A01 T00610014  RH  072%=      5-min Rain = 0
KST2 011555Z 00013KT 06/01 A3034 RMK A01 T00610014  RH  072%=      5-min Rain = 0
KST2 011556Z 00013KT 06/02 A3034 RMK A01 T00610018  RH  074%=      5-min Rain = 0
KST2 011557Z 36013KT 06/01 A3034 RMK A01 T00610013  RH  071%=      5-min Rain = 0
KST2 011558Z 01013KT 06/01 A3034 RMK A01 T00610014  RH  072%=      5-min Rain = 0
KST2 011559Z 01012KT 06/02 A3034 RMK A01 T00610016  RH  073%=      5-min Rain = 0
KST2 011600Z 00012KT 06/02 A3034 RMK A01 T00620018  RH  073%=      5-min Rain = 0
KST2 011601Z 01013KT 06/02 A3034 RMK A01 T00620017  RH  073%=      5-min Rain = 0
KST2 011602Z 02013KT 06/02 A3034 RMK A01 T00620017  RH  073%=      5-min Rain = 0
KST2 011603Z 01015KT 06/02 A3034 RMK A01 T00620016  RH  072%=      5-min Rain = 0
KST2 011604Z 01013KT 06/01 A3034 RMK A01 T00620014  RH  071%=      5-min Rain = 0
KST2 011605Z 01013KT 06/02 A3034 RMK A01 T00630016  RH  072%=      5-min Rain = 0
KST2 011606Z 01012KT 06/02 A3034 RMK A01 T00630017  RH  072%=      5-min Rain = 0
KST2 011607Z 01011KT 06/02 A3034 RMK A01 T00640019  RH  073%=      5-min Rain = 0
KST2 011608Z 00014KT 07/02 A3034 RMK A01 T00650019  RH  073%=      5-min Rain = 0
KST2 011609Z 36014KT 07/01 A3034 RMK A01 T00650014  RH  070%=      5-min Rain = 0
KST2 011610Z 01013KT 07/01 A3034 RMK A01 T00660014  RH  070%=      5-min Rain = 0
KST2 011611Z 00013KT 07/02 A3034 RMK A01 T00660017  RH  071%=      5-min Rain = 0
KST2 011612Z 01012KT 07/01 A3034 RMK A01 T00670013  RH  069%=      5-min Rain = 0
KST2 011613Z 02012KT 07/01 A3034 RMK A01 T00660012  RH  068%=      5-min Rain = 0
KST2 011614Z 02013KT 07/02 A3034 RMK A01 T00660015  RH  070%=      5-min Rain = 0
KST2 011615Z 02013KT 07/01 A3034 RMK A01 T00660011  RH  068%=      5-min Rain = 0
KST2 011616Z 02013KT 07/01 A3034 RMK A01 T00660014  RH  070%=      5-min Rain = 0
KST2 011617Z 01015KT 07/02 A3034 RMK A01 T00650015  RH  070%=      5-min Rain = 0
KST2 011618Z 01015KT 07/01 A3034 RMK A01 T00670014  RH  069%=      5-min Rain = 0
KST2 011619Z 02014KT 07/02 A3034 RMK A01 T00660015  RH  070%=      5-min Rain = 0
KST2 011620Z 01013G18KT 07/02 A3034 RMK A01 T00660015  RH  069%=      5-min Rain = 0
KST2 011621Z 02017KT 07/01 A3034 RMK A01 T00660011  RH  068%=      5-min Rain = 0
KST2 011622Z 02013KT 07/01 A3034 RMK A01 T00660009  RH  067%=      5-min Rain = 0
KST2 011623Z 02012KT 07/01 A3034 RMK A01 T00660013  RH  069%=      5-min Rain = 0
KST2 011624Z 03013KT 07/02 A3034 RMK A01 T00670015  RH  069%=      5-min Rain = 0
KST2 011625Z 03015KT 07/01 A3034 RMK A01 T00680013  RH  068%=      5-min Rain = 0
KST2 011626Z 03013KT 07/01 A3034 RMK A01 T00680013  RH  068%=      5-min Rain = 0
KST2 011627Z 03013KT 07/02 A3034 RMK A01 T00700020  RH  070%=      5-min Rain = 0
KST2 011628Z 02012KT 07/02 A3034 RMK A01 T00720020  RH  069%=      5-min Rain = 0
KST2 011629Z 01011KT 07/02 A3034 RMK A01 T00720022  RH  070%=      5-min Rain = 0
KST2 011630Z 02013KT 07/02 A3034 RMK A01 T00720021  RH  070%=      5-min Rain = 0
KST2 011631Z 01016KT 07/02 A3034 RMK A01 T00710016  RH  068%=      5-min Rain = 0
KST2 011632Z 01016KT 07/01 A3034 RMK A01 T00700013  RH  067%=      5-min Rain = 0
KST2 011633Z 01016KT 07/02 A3034 RMK A01 T00690015  RH  068%=      5-min Rain = 0
KST2 011634Z 01014KT 07/01 A3034 RMK A01 T00690011  RH  067%=      5-min Rain = 0
KST2 011635Z 01014KT 07/01 A3034 RMK A01 T00690013  RH  067%=      5-min Rain = 0
KST2 011636Z 02014KT 07/01 A3034 RMK A01 T00700013  RH  067%=      5-min Rain = 0
KST2 011637Z 01014KT 07/02 A3034 RMK A01 T00700015  RH  068%=      5-min Rain = 0
KST2 011638Z 01015KT 07/02 A3034 RMK A01 T00710015  RH  068%=      5-min Rain = 0
KST2 011639Z 02016KT 07/02 A3034 RMK A01 T00720017  RH  068%=      5-min Rain = 0
KST2 011640Z 02016KT 07/01 A3034 RMK A01 T00720013  RH  066%=      5-min Rain = 0
KST2 011641Z 02016KT 07/01 A3034 RMK A01 T00730012  RH  066%=      5-min Rain = 0
KST2 011642Z 02017KT 07/01 A3034 RMK A01 T00730011  RH  065%=      5-min Rain = 0
KST2 011643Z 02017KT 07/01 A3034 RMK A01 T00740010  RH  064%=      5-min Rain = 0
KST2 011644Z 03015KT 07/01 A3034 RMK A01 T00740011  RH  064%=      5-min Rain = 0
KST2 011645Z 02014KT 08/01 A3034 RMK A01 T00750012  RH  064%=      5-min Rain = 0
KST2 011646Z 03015KT 08/01 A3034 RMK A01 T00750010  RH  064%=      5-min Rain = 0
KST2 011647Z 03015KT 07/01 A3034 RMK A01 T00740010  RH  064%=      5-min Rain = 0
KST2 011648Z 03014KT 07/01 A3034 RMK A01 T00740010  RH  064%=      5-min Rain = 0
KST2 011649Z 02013G19KT 08/01 A3035 RMK A01 T00760013  RH  065%=      5-min Rain = 0
KST2 011650Z 02015KT 08/01 A3035 RMK A01 T00760009  RH  062%=      5-min Rain = 0
KST2 011651Z 03012KT 08/01 A3035 RMK A01 T00750009  RH  063%=      5-min Rain = 0
KST2 011652Z 02014KT 08/01 A3035 RMK A01 T00760012  RH  064%=      5-min Rain = 0
KST2 011653Z 01012KT 08/01 A3035 RMK A01 T00770012  RH  063%=      5-min Rain = 0
KST2 011654Z 03012KT 08/01 A3035 RMK A01 T00770012  RH  063%=      5-min Rain = 0
KST2 011655Z 03012KT 08/02 A3035 RMK A01 T00770015  RH  064%=      5-min Rain = 0
KST2 011656Z 03011KT 08/02 A3035 RMK A01 T00780015  RH  065%=      5-min Rain = 0
KST2 011657Z 02012KT 08/02 A3035 RMK A01 T00790018  RH  066%=      5-min Rain = 0
KST2 011658Z 01014KT 08/02 A3035 RMK A01 T00810020  RH  065%=      5-min Rain = 0
KST2 011659Z 01016KT 08/02 A3035 RMK A01 T00810015  RH  063%=      5-min Rain = 0
KST2 011700Z 01016KT 08/01 A3035 RMK A01 T00810013  RH  062%=      5-min Rain = 0
KST2 011701Z 01013KT 08/01 A3035 RMK A01 T00800013  RH  062%=      5-min Rain = 0
KST2 011702Z 02015KT 08/02 A3035 RMK A01 T00800015  RH  063%=      5-min Rain = 0
KST2 011703Z 02014KT 08/02 A3035 RMK A01 T00820016  RH  063%=      5-min Rain = 0
KST2 011704Z 02014KT 08/01 A3035 RMK A01 T00820010  RH  061%=      5-min Rain = 0
KST2 011705Z 02015KT 08/01 A3035 RMK A01 T00810009  RH  060%=      5-min Rain = 0
KST2 011706Z 02017KT 08/01 A3035 RMK A01 T00810011  RH  061%=      5-min Rain = 0
KST2 011707Z 02016KT 08/01 A3036 RMK A01 T00820011  RH  061%=      5-min Rain = 0
KST2 011708Z 02015KT 08/01 A3036 RMK A01 T00820008  RH  060%=      5-min Rain = 0
KST2 011709Z 03014KT 08/01 A3036 RMK A01 T00810006  RH  059%=      5-min Rain = 0
KST2 011710Z 03012G17KT 08/01 A3035 RMK A01 T00810012  RH  062%=      5-min Rain = 0
KST2 011711Z 02014KT 08/01 A3035 RMK A01 T00840013  RH  061%=      5-min Rain = 0
KST2 011712Z 02016KT 09/01 A3035 RMK A01 T00850013  RH  060%=      5-min Rain = 0
KST2 011713Z 03015KT 09/01 A3035 RMK A01 T00850010  RH  059%=      5-min Rain = 0
KST2 011714Z 03015KT 09/01 A3035 RMK A01 T00850010  RH  059%=      5-min Rain = 0
KST2 011715Z 03012KT 09/01 A3035 RMK A01 T00850007  RH  058%=      5-min Rain = 0
KST2 011716Z 02011KT 09/02 A3035 RMK A01 T00850016  RH  061%=      5-min Rain = 0
KST2 011717Z 04013KT 09/02 A3035 RMK A01 T00890019  RH  062%=      5-min Rain = 0
KST2 011718Z 03015KT 09/01 A3035 RMK A01 T00890012  RH  059%=      5-min Rain = 0
KST2 011719Z 02014KT 09/02 A3035 RMK A01 T00880015  RH  060%=      5-min Rain = 0
KST2 011720Z 02012KT 09/01 A3035 RMK A01 T00890014  RH  059%=      5-min Rain = 0
KST2 011721Z 03012KT 09/01 A3035 RMK A01 T00880014  RH  059%=      5-min Rain = 0
KST2 011722Z 02015KT 09/01 A3035 RMK A01 T00880011  RH  059%=      5-min Rain = 0
KST2 011723Z 02013KT 09/01 A3035 RMK A01 T00860007  RH  058%=      5-min Rain = 0
KST2 011724Z 02012KT 09/01 A3035 RMK A01 T00850007  RH  058%=      5-min Rain = 0
KST2 011725Z 03013KT 09/01 A3035 RMK A01 T00860014  RH  061%=      5-min Rain = 0
KST2 011726Z 02017KT 09/02 A3036 RMK A01 T00900018  RH  061%=      5-min Rain = 0
KST2 011727Z 02015KT 09/01 A3036 RMK A01 T00900011  RH  058%=      5-min Rain = 0
KST2 011728Z 02014KT 09/01 A3036 RMK A01 T00880011  RH  058%=      5-min Rain = 0
KST2 011729Z 01014KT 09/01 A3035 RMK A01 T00880009  RH  057%=      5-min Rain = 0
KST2 011730Z 02014KT 09/01 A3036 RMK A01 T00880010  RH  058%=      5-min Rain = 0
KST2 011731Z 03011KT 09/01 A3036 RMK A01 T00890011  RH  058%=      5-min Rain = 0
KST2 011732Z 03015KT 09/01 A3036 RMK A01 T00900012  RH  058%=      5-min Rain = 0
KST2 011733Z 04016KT 09/01 A3036 RMK A01 T00890009  RH  057%=      5-min Rain = 0
KST2 011734Z 04013KT 09/00 A3036 RMK A01 T00870003  RH  056%=      5-min Rain = 0
KST2 011735Z 04012KT 08/00 A3036 RMK A01 T00840002  RH  056%=      5-min Rain = 0
KST2 011736Z 04014KT 08/00 A3036 RMK A01 T00840004  RH  057%=      5-min Rain = 0
KST2 011737Z 04012KT 08/M00 A3036 RMK A01 T00841001  RH  055%=      5-min Rain = 0
KST2 011738Z 04013KT 08/00 A3036 RMK A01 T00840002  RH  056%=      5-min Rain = 0
KST2 011739Z 03013KT 08/00 A3036 RMK A01 T00840003  RH  056%=      5-min Rain = 0
KST2 011740Z 02012KT 08/00 A3037 RMK A01 T00840003  RH  057%=      5-min Rain = 0
KST2 011741Z 03011KT 09/01 A3037 RMK A01 T00850009  RH  059%=      5-min Rain = 0
KST2 011742Z 02014KT 09/01 A3037 RMK A01 T00860007  RH  058%=      5-min Rain = 0
KST2 011743Z 02014KT 08/00 A3037 RMK A01 T00840004  RH  057%=      5-min Rain = 0
KST2 011744Z 02013KT 08/00 A3037 RMK A01 T00830002  RH  057%=      5-min Rain = 0
KST2 011745Z 01013KT 08/01 A3036 RMK A01 T00820006  RH  059%=      5-min Rain = 0
KST2 011746Z 03013KT 08/00 A3037 RMK A01 T00830004  RH  057%=      5-min Rain = 0
KST2 011747Z 03013KT 08/00 A3037 RMK A01 T00830002  RH  056%=      5-min Rain = 0
KST2 011748Z 02013KT 08/00 A3036 RMK A01 T00830002  RH  057%=      5-min Rain = 0
KST2 011749Z 01013KT 08/00 A3037 RMK A01 T00840003  RH  057%=      5-min Rain = 0
KST2 011750Z 02013KT 08/00 A3037 RMK A01 T00840004  RH  057%=      5-min Rain = 0
KST2 011751Z 01015KT 08/00 A3037 RMK A01 T00830000  RH  056%=      5-min Rain = 0
KST2 011752Z 02014KT 08/00 A3037 RMK A01 T00830002  RH  057%=      5-min Rain = 0
KST2 011753Z 02012KT 08/00 A3037 RMK A01 T00830002  RH  057%=      5-min Rain = 0
KST2 011754Z 03010KT 08/00 A3037 RMK A01 T00840003  RH  057%=      5-min Rain = 0
KST2 011755Z 00012KT 09/01 A3037 RMK A01 T00860007  RH  058%=      5-min Rain = 0
KST2 011756Z 00013KT 09/01 A3037 RMK A01 T00880005  RH  056%=      5-min Rain = 0
KST2 011757Z 01014KT 09/00 A3037 RMK A01 T00880003  RH  055%=      5-min Rain = 0
KST2 011758Z 00013KT 09/00 A3037 RMK A01 T008700-0  RH  054%=      5-min Rain = 0
KST2 011759Z 01013KT 09/00 A3037 RMK A01 T00870004  RH  056%=      5-min Rain = 0
KST2 011800Z 02010KT 09/01 A3037 RMK A01 T00890007  RH  056%=      5-min Rain = 0
KST2 011801Z 01011KT 09/01 A3037 RMK A01 T00920010  RH  056%=      5-min Rain = 0
KST2 011802Z 03013KT 09/01 A3037 RMK A01 T00940008  RH  055%=      5-min Rain = 0
KST2 011803Z 02015KT 10/01 A3037 RMK A01 T00950005  RH  054%=      5-min Rain = 0
KST2 011804Z 02013KT 09/M00 A3037 RMK A01 T00921003  RH  051%=      5-min Rain = 0
KST2 011805Z 02013KT 09/M00 A3037 RMK A01 T00901002  RH  052%=      5-min Rain = 0
KST2 011806Z 02013KT 09/M00 A3037 RMK A01 T00891001  RH  053%=      5-min Rain = 0
KST2 011807Z 03012KT 09/M00 A3037 RMK A01 T00891001  RH  053%=      5-min Rain = 0
KST2 011808Z 02012KT 09/00 A3037 RMK A01 T00880000  RH  054%=      5-min Rain = 0
KST2 011809Z 03013KT 09/M00 A3037 RMK A01 T00901001  RH  053%=      5-min Rain = 0
KST2 011810Z 03014KT 09/00 A3037 RMK A01 T00900001  RH  054%=      5-min Rain = 0
KST2 011811Z 03012KT 09/00 A3037 RMK A01 T009000-0  RH  053%=      5-min Rain = 0
KST2 011812Z 02012KT 09/00 A3036 RMK A01 T00890001  RH  054%=      5-min Rain = 0
KST2 011813Z 01009KT 09/00 A3036 RMK A01 T00910002  RH  054%=      5-min Rain = 0
KST2 011814Z 00011KT 09/M00 A3036 RMK A01 T00901001  RH  053%=      5-min Rain = 0
KST2 011815Z 01016KT 09/M00 A3036 RMK A01 T00901001  RH  053%=      5-min Rain = 0
KST2 011816Z 02014KT 09/M00 A3036 RMK A01 T00901002  RH  053%=      5-min Rain = 0
KST2 011817Z 03012KT 09/00 A3036 RMK A01 T00920002  RH  053%=      5-min Rain = 0
KST2 011818Z 02011KT 10/00 A3036 RMK A01 T00950001  RH  052%=      5-min Rain = 0
KST2 011819Z 03012KT 09/00 A3036 RMK A01 T00940001  RH  052%=      5-min Rain = 0
KST2 011820Z 02013KT 09/00 A3036 RMK A01 T009300-0  RH  052%=      5-min Rain = 0
KST2 011821Z 02014KT 09/M01 A3036 RMK A01 T00911005  RH  051%=      5-min Rain = 0
KST2 011822Z 01013KT 09/M00 A3036 RMK A01 T00891003  RH  052%=      5-min Rain = 0
KST2 011823Z 00014KT 09/M00 A3036 RMK A01 T00891003  RH  052%=      5-min Rain = 0
KST2 011824Z 02014KT 09/M00 A3036 RMK A01 T00901002  RH  052%=      5-min Rain = 0
KST2 011825Z 03016KT 09/M01 A3036 RMK A01 T00911010  RH  049%=      5-min Rain = 0
KST2 011826Z 03015KT 09/M01 A3036 RMK A01 T00901007  RH  050%=      5-min Rain = 0
KST2 011827Z 02013KT 09/M01 A3036 RMK A01 T00901009  RH  050%=      5-min Rain = 0
KST2 011828Z 02012KT 09/M01 A3036 RMK A01 T00891014  RH  049%=      5-min Rain = 0
KST2 011829Z 04010KT 09/M01 A3035 RMK A01 T00881012  RH  050%=      5-min Rain = 0
KST2 011830Z 02012KT 09/M01 A3035 RMK A01 T00881005  RH  052%=      5-min Rain = 0
KST2 011831Z 02011KT 09/00 A3035 RMK A01 T009000-0  RH  053%=      5-min Rain = 0
KST2 011832Z 01012KT 09/00 A3035 RMK A01 T00900001  RH  053%=      5-min Rain = 0
KST2 011833Z 00010KT 09/00 A3035 RMK A01 T00890000  RH  054%=      5-min Rain = 0
KST2 011834Z 35011KT 09/00 A3035 RMK A01 T00880002  RH  055%=      5-min Rain = 0
KST2 011835Z 36013KT 09/00 A3035 RMK A01 T00890002  RH  054%=      5-min Rain = 0
KST2 011836Z 00015KT 09/01 A3035 RMK A01 T00910006  RH  055%=      5-min Rain = 0
KST2 011837Z 35013KT 09/01 A3035 RMK A01 T00910005  RH  055%=      5-min Rain = 0
KST2 011838Z 35012G17KT 09/00 A3035 RMK A01 T00910002  RH  054%=      5-min Rain = 0
KST2 011839Z 36014KT 09/01 A3036 RMK A01 T00920006  RH  055%=      5-min Rain = 0
KST2 011840Z 00011KT 09/01 A3036 RMK A01 T00940006  RH  054%=      5-min Rain = 0
KST2 011841Z 00013KT 09/01 A3036 RMK A01 T00940008  RH  055%=      5-min Rain = 0
KST2 011842Z 00014KT 09/01 A3036 RMK A01 T00940006  RH  054%=      5-min Rain = 0
KST2 011843Z 01015KT 09/01 A3036 RMK A01 T00940007  RH  054%=      5-min Rain = 0
KST2 011844Z 01014KT 09/00 A3036 RMK A01 T00930004  RH  054%=      5-min Rain = 0
KST2 011845Z 35015KT 09/00 A3036 RMK A01 T00910002  RH  054%=      5-min Rain = 0
KST2 011846Z 35010KT 09/00 A3036 RMK A01 T00890000  RH  054%=      5-min Rain = 0
KST2 011847Z 01010KT 09/00 A3036 RMK A01 T00890002  RH  054%=      5-min Rain = 0
KST2 011848Z 35011KT 09/01 A3036 RMK A01 T00900005  RH  055%=      5-min Rain = 0
KST2 011849Z 01012KT 09/00 A3036 RMK A01 T00910002  RH  053%=      5-min Rain = 0
KST2 011850Z 01013KT 09/00 A3036 RMK A01 T00900000  RH  053%=      5-min Rain = 0
KST2 011851Z 02014KT 09/00 A3036 RMK A01 T00890001  RH  054%=      5-min Rain = 0
KST2 011852Z 01012KT 09/M00 A3036 RMK A01 T00881004  RH  052%=      5-min Rain = 0
KST2 011853Z 36012KT 09/M00 A3035 RMK A01 T00871003  RH  053%=      5-min Rain = 0
KST2 011854Z 35013KT 09/M00 A3035 RMK A01 T00871003  RH  053%=      5-min Rain = 0
KST2 011855Z 01010G15KT 09/M01 A3035 RMK A01 T00871005  RH  052%=      5-min Rain = 0
KST2 011856Z 01011KT 09/M00 A3035 RMK A01 T00871002  RH  054%=      5-min Rain = 0
KST2 011857Z 02015KT 09/00 A3036 RMK A01 T00890002  RH  054%=      5-min Rain = 0
KST2 011858Z 02013KT 09/M00 A3035 RMK A01 T00901002  RH  052%=      5-min Rain = 0
KST2 011859Z 36013KT 09/M00 A3035 RMK A01 T00911003  RH  052%=      5-min Rain = 0
KST2 011900Z 35012KT 09/M00 A3035 RMK A01 T00911004  RH  051%=      5-min Rain = 0
KST2 011901Z 00013KT 09/M00 A3035 RMK A01 T00931003  RH  051%=      5-min Rain = 0
KST2 011902Z 36009KT 09/M01 A3035 RMK A01 T00941006  RH  050%=      5-min Rain = 0
KST2 011903Z 01012G17KT 10/M00 A3035 RMK A01 T00951002  RH  051%=      5-min Rain = 0
KST2 011904Z 02014KT 10/00 A3036 RMK A01 T01000003  RH  051%=      5-min Rain = 0
KST2 011905Z 00013KT 10/00 A3036 RMK A01 T010100-0  RH  049%=      5-min Rain = 0
KST2 011906Z 00011KT 10/M00 A3036 RMK A01 T01001004  RH  048%=      5-min Rain = 0
KST2 011907Z 00011KT 10/M01 A3036 RMK A01 T00991005  RH  048%=      5-min Rain = 0
KST2 011908Z 00010KT 10/M00 A3035 RMK A01 T01001003  RH  049%=      5-min Rain = 0
KST2 011909Z 01011KT 10/00 A3035 RMK A01 T010100-0  RH  049%=      5-min Rain = 0
KST2 011910Z 01012KT 10/00 A3035 RMK A01 T01030001  RH  049%=      5-min Rain = 0
KST2 011911Z 01011KT 11/01 A3035 RMK A01 T01050005  RH  050%=      5-min Rain = 0
KST2 011912Z 01011KT 11/00 A3035 RMK A01 T01070001  RH  048%=      5-min Rain = 0
KST2 011913Z 01010KT 11/00 A3035 RMK A01 T01060004  RH  049%=      5-min Rain = 0
KST2 011914Z 36011KT 11/00 A3035 RMK A01 T01060000  RH  048%=      5-min Rain = 0
KST2 011915Z 00013KT 10/M00 A3035 RMK A01 T01021004  RH  047%=      5-min Rain = 0
KST2 011916Z 35010KT 10/M00 A3035 RMK A01 T01021002  RH  049%=      5-min Rain = 0
KST2 011917Z 36011KT 11/00 A3035 RMK A01 T01050001  RH  049%=      5-min Rain = 0
KST2 011918Z 36011KT 11/00 A3035 RMK A01 T01070003  RH  049%=      5-min Rain = 0
KST2 011919Z 35010KT 11/M01 A3035 RMK A01 T01071006  RH  046%=      5-min Rain = 0
KST2 011920Z 36013KT 11/M00 A3035 RMK A01 T01051003  RH  047%=      5-min Rain = 0
KST2 011921Z 01011KT 10/M01 A3035 RMK A01 T01021005  RH  047%=      5-min Rain = 0
KST2 011922Z 01012KT 10/M00 A3034 RMK A01 T01021002  RH  049%=      5-min Rain = 0
KST2 011923Z 01013KT 10/M00 A3035 RMK A01 T01041001  RH  048%=      5-min Rain = 0
KST2 011924Z 02012KT 10/M01 A3034 RMK A01 T01041008  RH  046%=      5-min Rain = 0
KST2 011925Z 02012KT 10/M01 A3034 RMK A01 T01021010  RH  046%=      5-min Rain = 0
KST2 011926Z 03011KT 10/M01 A3034 RMK A01 T00991012  RH  046%=      5-min Rain = 0
KST2 011927Z 03011KT 10/M01 A3034 RMK A01 T00981012  RH  046%=      5-min Rain = 0
KST2 011928Z 04008KT 10/M02 A3034 RMK A01 T00971015  RH  046%=      5-min Rain = 0
KST2 011929Z 02009KT 10/M01 A3034 RMK A01 T00971010  RH  047%=      5-min Rain = 0
KST2 011930Z 01008KT 10/M01 A3034 RMK A01 T00991010  RH  047%=      5-min Rain = 0
KST2 011931Z 02008KT 10/M01 A3034 RMK A01 T00991011  RH  046%=      5-min Rain = 0
KST2 011932Z 03008KT 10/M01 A3034 RMK A01 T00981009  RH  047%=      5-min Rain = 0
KST2 011933Z 03009KT 10/M01 A3034 RMK A01 T00981014  RH  046%=      5-min Rain = 0
KST2 011934Z 02009KT 10/M01 A3034 RMK A01 T00981010  RH  047%=      5-min Rain = 0
KST2 011935Z 03008KT 10/M01 A3034 RMK A01 T00991013  RH  045%=      5-min Rain = 0
KST2 011936Z 03008KT 10/M02 A3034 RMK A01 T00991016  RH  045%=      5-min Rain = 0
KST2 011937Z 05009KT 10/M01 A3034 RMK A01 T00991014  RH  045%=      5-min Rain = 0
KST2 011938Z 05010KT 10/M01 A3034 RMK A01 T01011007  RH  047%=      5-min Rain = 0
KST2 011939Z 05010KT 10/M01 A3034 RMK A01 T01031008  RH  046%=      5-min Rain = 0
KST2 011940Z 05009KT 11/M01 A3034 RMK A01 T01051007  RH  046%=      5-min Rain = 0
KST2 011941Z 05011KT 11/M00 A3033 RMK A01 T01071004  RH  046%=      5-min Rain = 0
KST2 011942Z 03008KT 11/M01 A3033 RMK A01 T01071008  RH  045%=      5-min Rain = 0
KST2 011943Z 06008KT 11/M01 A3033 RMK A01 T01061009  RH  045%=      5-min Rain = 0
KST2 011944Z 06009KT 11/M01 A3033 RMK A01 T01061008  RH  045%=      5-min Rain = 0
KST2 011945Z 05007KT 11/M01 A3033 RMK A01 T01061008  RH  045%=      5-min Rain = 0
KST2 011946Z 04007KT 11/M01 A3033 RMK A01 T01051009  RH  045%=      5-min Rain = 0
KST2 011947Z 04008KT 10/M01 A3033 RMK A01 T01041011  RH  045%=      5-min Rain = 0
KST2 011948Z 04007KT 11/M01 A3033 RMK A01 T01051007  RH  046%=      5-min Rain = 0
KST2 011949Z 02010KT 11/M01 A3033 RMK A01 T01071009  RH  045%=      5-min Rain = 0
KST2 011950Z 03007KT 11/M01 A3033 RMK A01 T01051014  RH  044%=      5-min Rain = 0
KST2 011951Z 05006KT 10/M01 A3033 RMK A01 T01021011  RH  045%=      5-min Rain = 0
KST2 011952Z 01008KT 10/M01 A3033 RMK A01 T01041006  RH  046%=      5-min Rain = 0
KST2 011953Z 36011KT 11/M01 A3033 RMK A01 T01061005  RH  046%=      5-min Rain = 0
KST2 011954Z 34013KT 11/M00 A3033 RMK A01 T01061001  RH  048%=      5-min Rain = 0
KST2 011955Z 33013KT 11/M00 A3033 RMK A01 T01051003  RH  047%=      5-min Rain = 0
KST2 011956Z 33013KT 11/M00 A3033 RMK A01 T01051003  RH  047%=      5-min Rain = 0
KST2 011957Z 34010KT 10/M01 A3033 RMK A01 T01041005  RH  047%=      5-min Rain = 0
KST2 011958Z 34009KT 10/M00 A3033 RMK A01 T01041001  RH  048%=      5-min Rain = 0
KST2 011959Z 35012KT 11/M00 A3033 RMK A01 T01051004  RH  047%=      5-min Rain = 0
KST2 012000Z 36010KT 11/M01 A3033 RMK A01 T01051005  RH  047%=      5-min Rain = 0
KST2 012001Z 00012KT 11/00 A3033 RMK A01 T01050000  RH  048%=      5-min Rain = 0
KST2 012002Z 01014KT 11/00 A3033 RMK A01 T01090001  RH  047%=      5-min Rain = 0
KST2 012003Z 01013KT 11/M00 A3033 RMK A01 T01091004  RH  046%=      5-min Rain = 0
KST2 012004Z 00011KT 11/M01 A3033 RMK A01 T01071005  RH  046%=      5-min Rain = 0
KST2 012005Z 36012KT 11/M01 A3033 RMK A01 T01071005  RH  046%=      5-min Rain = 0
KST2 012006Z 35012KT 11/M00 A3033 RMK A01 T01071003  RH  047%=      5-min Rain = 0
KST2 012007Z 35013KT 11/M00 A3033 RMK A01 T01061004  RH  046%=      5-min Rain = 0
KST2 012008Z 35014KT 11/M01 A3033 RMK A01 T01051006  RH  046%=      5-min Rain = 0
KST2 012009Z 35014KT 10/M01 A3033 RMK A01 T01031010  RH  045%=      5-min Rain = 0
KST2 012010Z 34012KT 10/M01 A3034 RMK A01 T01031006  RH  047%=      5-min Rain = 0
KST2 012011Z 33009KT 11/M01 A3034 RMK A01 T01051007  RH  046%=      5-min Rain = 0
KST2 012012Z 34011KT 11/00 A3033 RMK A01 T010900-0  RH  047%=      5-min Rain = 0
KST2 012013Z 34012KT 11/M00 A3033 RMK A01 T01131004  RH  045%=      5-min Rain = 0
KST2 012014Z 35011KT 11/M00 A3034 RMK A01 T01141003  RH  044%=      5-min Rain = 0
KST2 012015Z 36011KT 11/M00 A3034 RMK A01 T01131004  RH  044%=      5-min Rain = 0
KST2 012016Z 36012KT 11/M00 A3034 RMK A01 T01141001  RH  045%=      5-min Rain = 0
KST2 012017Z 36012KT 11/M01 A3034 RMK A01 T01111011  RH  043%=      5-min Rain = 0
KST2 012018Z 35013KT 11/M01 A3033 RMK A01 T01071012  RH  044%=      5-min Rain = 0
KST2 012019Z 35015KT 11/M01 A3033 RMK A01 T01051012  RH  044%=      5-min Rain = 0
KST2 012020Z 35012KT 11/M01 A3033 RMK A01 T01061013  RH  044%=      5-min Rain = 0
KST2 012021Z 01011KT 11/M01 A3033 RMK A01 T01051013  RH  044%=      5-min Rain = 0
KST2 012022Z 02010KT 11/M01 A3033 RMK A01 T01051012  RH  044%=      5-min Rain = 0
KST2 012023Z 01009KT 11/M01 A3033 RMK A01 T01051011  RH  044%=      5-min Rain = 0
KST2 012024Z 36010KT 11/M01 A3033 RMK A01 T01071008  RH  045%=      5-min Rain = 0
KST2 012025Z 35010KT 11/M01 A3033 RMK A01 T01081011  RH  044%=      5-min Rain = 0
KST2 012026Z 00010KT 11/M01 A3033 RMK A01 T01081008  RH  044%=      5-min Rain = 0
KST2 012027Z 00013KT 11/M01 A3033 RMK A01 T01091010  RH  044%=      5-min Rain = 0
KST2 012028Z 00015KT 11/M01 A3033 RMK A01 T01091010  RH  044%=      5-min Rain = 0
KST2 012029Z 36014KT 11/M01 A3033 RMK A01 T01091012  RH  043%=      5-min Rain = 0
KST2 012030Z 01012KT 11/M01 A3033 RMK A01 T01081013  RH  043%=      5-min Rain = 0
KST2 012031Z 00012KT 11/M01 A3033 RMK A01 T01081013  RH  043%=      5-min Rain = 0
KST2 012032Z 01009KT 11/M01 A3033 RMK A01 T01091013  RH  043%=      5-min Rain = 0
KST2 012033Z 36008KT 11/M02 A3033 RMK A01 T01091016  RH  042%=      5-min Rain = 0
KST2 012034Z 01010KT 11/M02 A3033 RMK A01 T01081015  RH  042%=      5-min Rain = 0
KST2 012035Z 00013KT 11/M01 A3033 RMK A01 T01091010  RH  044%=      5-min Rain = 0
KST2 012036Z 01014KT 11/M01 A3033 RMK A01 T01111011  RH  043%=      5-min Rain = 0
KST2 012037Z 02011KT 11/M02 A3033 RMK A01 T01111016  RH  041%=      5-min Rain = 0
KST2 012038Z 01012KT 11/M01 A3033 RMK A01 T01111013  RH  042%=      5-min Rain = 0
KST2 012039Z 00014KT 11/M01 A3033 RMK A01 T01111013  RH  042%=      5-min Rain = 0
KST2 012040Z 36015KT 11/M01 A3033 RMK A01 T01111011  RH  043%=      5-min Rain = 0
KST2 012041Z 00010KT 11/M02 A3033 RMK A01 T01121015  RH  041%=      5-min Rain = 0
KST2 012042Z 01011KT 11/M02 A3033 RMK A01 T01111015  RH  042%=      5-min Rain = 0
KST2 012043Z 35011KT 11/M01 A3033 RMK A01 T01131010  RH  043%=      5-min Rain = 0
KST2 012044Z 00013KT 12/M01 A3033 RMK A01 T01171011  RH  041%=      5-min Rain = 0
KST2 012045Z 01011KT 12/M01 A3033 RMK A01 T01171013  RH  041%=      5-min Rain = 0
KST2 012046Z 01014KT 12/M01 A3033 RMK A01 T01151012  RH  041%=      5-min Rain = 0
KST2 012047Z 36015KT 12/M01 A3033 RMK A01 T01161010  RH  041%=      5-min Rain = 0
KST2 012048Z 36015KT 12/M01 A3033 RMK A01 T01171012  RH  041%=      5-min Rain = 0
KST2 012049Z 34010KT 12/M02 A3033 RMK A01 T01161015  RH  040%=      5-min Rain = 0
KST2 012050Z 36012KT 12/M01 A3032 RMK A01 T01151010  RH  042%=      5-min Rain = 0
KST2 012051Z 36013KT 12/M01 A3032 RMK A01 T01181013  RH  040%=      5-min Rain = 0
KST2 012052Z 01011KT 12/M01 A3032 RMK A01 T01171014  RH  040%=      5-min Rain = 0
KST2 012053Z 01016KT 12/M01 A3032 RMK A01 T01171012  RH  041%=      5-min Rain = 0
KST2 012054Z 01017KT 12/M02 A3032 RMK A01 T01191015  RH  039%=      5-min Rain = 0
KST2 012055Z 36016KT 12/M02 A3033 RMK A01 T01171020  RH  038%=      5-min Rain = 0
KST2 012056Z 00013KT 12/M02 A3033 RMK A01 T01151019  RH  039%=      5-min Rain = 0
KST2 012057Z 35012KT 11/M02 A3032 RMK A01 T01141021  RH  039%=      5-min Rain = 0
KST2 012058Z 36012KT 12/M02 A3032 RMK A01 T01161015  RH  040%=      5-min Rain = 0
KST2 012059Z 01013G18KT 12/M02 A3032 RMK A01 T01181015  RH  040%=      5-min Rain = 0
KST2 012100Z 00015KT 12/M01 A3032 RMK A01 T01211011  RH  040%=      5-min Rain = 0
KST2 012101Z 36012KT 12/M02 A3032 RMK A01 T01211020  RH  038%=      5-min Rain = 0
KST2 012102Z 36011G16KT 12/M02 A3032 RMK A01 T01181022  RH  038%=      5-min Rain = 0
KST2 012103Z 00013KT 12/M02 A3032 RMK A01 T01181017  RH  039%=      5-min Rain = 0
KST2 012104Z 36014KT 12/M02 A3032 RMK A01 T01191018  RH  038%=      5-min Rain = 0
KST2 012105Z 00012KT 12/M02 A3032 RMK A01 T01181020  RH  038%=      5-min Rain = 0
KST2 012106Z 36014KT 12/M02 A3032 RMK A01 T01171017  RH  039%=      5-min Rain = 0
KST2 012107Z 35014KT 12/M02 A3032 RMK A01 T01181016  RH  039%=      5-min Rain = 0
KST2 012108Z 35013KT 12/M02 A3032 RMK A01 T01181018  RH  039%=      5-min Rain = 0
KST2 012109Z 34011KT 12/M02 A3032 RMK A01 T01181016  RH  039%=      5-min Rain = 0
KST2 012110Z 34011KT 12/M02 A3032 RMK A01 T01201016  RH  039%=      5-min Rain = 0
KST2 012111Z 01007KT 12/M02 A3032 RMK A01 T01191020  RH  038%=      5-min Rain = 0
KST2 012112Z 03012KT 12/M02 A3032 RMK A01 T01201016  RH  039%=      5-min Rain = 0
KST2 012113Z 01016KT 12/M02 A3032 RMK A01 T01241016  RH  038%=      5-min Rain = 0
KST2 012114Z 01016KT 12/M02 A3032 RMK A01 T01241024  RH  036%=      5-min Rain = 0
KST2 012115Z 02011KT 12/M03 A3032 RMK A01 T01211028  RH  035%=      5-min Rain = 0
KST2 012116Z 03011G16KT 12/M03 A3032 RMK A01 T01211029  RH  035%=      5-min Rain = 0
KST2 012117Z 36015KT 12/M03 A3032 RMK A01 T01201025  RH  036%=      5-min Rain = 0
KST2 012118Z 34012KT 12/M02 A3032 RMK A01 T01201024  RH  037%=      5-min Rain = 0
KST2 012119Z 36011KT 12/M02 A3032 RMK A01 T01201022  RH  037%=      5-min Rain = 0
KST2 012120Z 01013KT 12/M02 A3032 RMK A01 T01191019  RH  038%=      5-min Rain = 0
KST2 012121Z 01015KT 12/M02 A3032 RMK A01 T01211021  RH  037%=      5-min Rain = 0
KST2 012122Z 02016KT 12/M02 A3032 RMK A01 T01231020  RH  037%=      5-min Rain = 0
KST2 012123Z 02014KT 12/M02 A3032 RMK A01 T01231022  RH  036%=      5-min Rain = 0
KST2 012124Z 02012KT 13/M02 A3032 RMK A01 T01251024  RH  035%=      5-min Rain = 0
KST2 012125Z 02010KT 12/M03 A3032 RMK A01 T01231028  RH  035%=      5-min Rain = 0
KST2 012126Z 02010KT 12/M03 A3032 RMK A01 T01201029  RH  035%=      5-min Rain = 0
KST2 012127Z 35010KT 12/M02 A3032 RMK A01 T01201022  RH  037%=      5-min Rain = 0
KST2 012128Z 35014KT 12/M02 A3032 RMK A01 T01241017  RH  037%=      5-min Rain = 0
KST2 012129Z 00016KT 13/M02 A3032 RMK A01 T01251023  RH  036%=      5-min Rain = 0
KST2 012130Z 00014KT 12/M02 A3032 RMK A01 T01231018  RH  038%=      5-min Rain = 0
KST2 012131Z 36013KT 13/M02 A3032 RMK A01 T01251019  RH  037%=      5-min Rain = 0
KST2 012132Z 01009KT 12/M02 A3032 RMK A01 T01241020  RH  037%=      5-min Rain = 0
KST2 012133Z 00014KT 12/M02 A3032 RMK A01 T01241020  RH  037%=      5-min Rain = 0
KST2 012134Z 35012KT 13/M02 A3032 RMK A01 T01251016  RH  038%=      5-min Rain = 0
KST2 012135Z 35017KT 13/M01 A3032 RMK A01 T01261014  RH  038%=      5-min Rain = 0
KST2 012136Z 35017KT 13/M02 A3032 RMK A01 T01251018  RH  037%=      5-min Rain = 0
KST2 012137Z 34018G23KT 12/M02 A3032 RMK A01 T01221019  RH  038%=      5-min Rain = 0
KST2 012138Z 35017G23KT 12/M02 A3032 RMK A01 T01201018  RH  038%=      5-min Rain = 0
KST2 012139Z 35017KT 12/M02 A3032 RMK A01 T01191016  RH  039%=      5-min Rain = 0
KST2 012140Z 35019KT 12/M02 A3032 RMK A01 T01191017  RH  039%=      5-min Rain = 0
KST2 012141Z 34018KT 12/M02 A3032 RMK A01 T01181018  RH  039%=      5-min Rain = 0
KST2 012142Z 35018KT 12/M02 A3033 RMK A01 T01181018  RH  039%=      5-min Rain = 0
KST2 012143Z 35019KT 12/M02 A3033 RMK A01 T01171019  RH  039%=      5-min Rain = 0
KST2 012144Z 34017KT 12/M02 A3033 RMK A01 T01161020  RH  039%=      5-min Rain = 0
KST2 012145Z 34015KT 12/M02 A3033 RMK A01 T01161019  RH  039%=      5-min Rain = 0
KST2 012146Z 35018KT 12/M02 A3033 RMK A01 T01161020  RH  039%=      5-min Rain = 0
KST2 012147Z 34016KT 11/M02 A3033 RMK A01 T01141023  RH  038%=      5-min Rain = 0
KST2 012148Z 34017KT 11/M03 A3033 RMK A01 T01091027  RH  039%=      5-min Rain = 0
KST2 012149Z 34014KT 11/M03 A3033 RMK A01 T01061025  RH  040%=      5-min Rain = 0
KST2 012150Z 34014KT 11/M02 A3033 RMK A01 T01051024  RH  040%=      5-min Rain = 0
KST2 012151Z 34012KT 10/M02 A3033 RMK A01 T01041022  RH  041%=      5-min Rain = 0
KST2 012152Z 35015KT 11/M02 A3033 RMK A01 T01051022  RH  041%=      5-min Rain = 0
KST2 012153Z 35013KT 11/M02 A3033 RMK A01 T01051024  RH  040%=      5-min Rain = 0
KST2 012154Z 00014KT 11/M02 A3033 RMK A01 T01051021  RH  041%=      5-min Rain = 0
KST2 012155Z 00014KT 11/M02 A3033 RMK A01 T01081018  RH  041%=      5-min Rain = 0
KST2 012156Z 00015KT 11/M02 A3033 RMK A01 T01091023  RH  040%=      5-min Rain = 0
KST2 012157Z 35015KT 11/M02 A3033 RMK A01 T01081023  RH  040%=      5-min Rain = 0
KST2 012158Z 35014KT 11/M03 A3033 RMK A01 T01071025  RH  039%=      5-min Rain = 0
KST2 012159Z 36014KT 11/M03 A3033 RMK A01 T01061026  RH  040%=      5-min Rain = 0
KST2 012200Z 36017KT 11/M02 A3033 RMK A01 T01051023  RH  041%=      5-min Rain = 0
KST2 012201Z 36016KT 11/M02 A3033 RMK A01 T01061023  RH  040%=      5-min Rain = 0
KST2 012202Z 34015KT 11/M02 A3033 RMK A01 T01061023  RH  041%=      5-min Rain = 0
KST2 012203Z 34016KT 11/M03 A3032 RMK A01 T01061025  RH  040%=      5-min Rain = 0
KST2 012204Z 34017KT 11/M03 A3032 RMK A01 T01061025  RH  040%=      5-min Rain = 0
KST2 012205Z 36018KT 11/M03 A3033 RMK A01 T01071025  RH  040%=      5-min Rain = 0
KST2 012206Z 36017KT 11/M03 A3033 RMK A01 T01071027  RH  039%=      5-min Rain = 0
KST2 012207Z 36015KT 11/M03 A3033 RMK A01 T01071027  RH  039%=      5-min Rain = 0
KST2 012208Z 36017KT 11/M03 A3033 RMK A01 T01081028  RH  039%=      5-min Rain = 0
KST2 012209Z 00014KT 11/M03 A3033 RMK A01 T01081028  RH  038%=      5-min Rain = 0
KST2 012210Z 35016KT 11/M03 A3033 RMK A01 T01091028  RH  038%=      5-min Rain = 0
KST2 012211Z 35015KT 11/M03 A3032 RMK A01 T01111027  RH  038%=      5-min Rain = 0
KST2 012212Z 35015KT 11/M03 A3032 RMK A01 T01131029  RH  037%=      5-min Rain = 0
KST2 012213Z 35015KT 11/M03 A3032 RMK A01 T01131026  RH  038%=      5-min Rain = 0
KST2 012214Z 00014KT 12/M03 A3032 RMK A01 T01151029  RH  037%=      5-min Rain = 0
KST2 012215Z 36013KT 12/M03 A3032 RMK A01 T01161028  RH  036%=      5-min Rain = 0
KST2 012216Z 00015KT 12/M03 A3032 RMK A01 T01161028  RH  036%=      5-min Rain = 0
KST2 012217Z 00015KT 12/M03 A3032 RMK A01 T01151028  RH  037%=      5-min Rain = 0
KST2 012218Z 00015KT 12/M03 A3032 RMK A01 T01151027  RH  037%=      5-min Rain = 0
KST2 012219Z 00015KT 12/M03 A3032 RMK A01 T01151029  RH  036%=      5-min Rain = 0
KST2 012220Z 00016KT 12/M03 A3032 RMK A01 T01151028  RH  037%=      5-min Rain = 0
KST2 012221Z 01015KT 12/M03 A3033 RMK A01 T01171027  RH  037%=      5-min Rain = 0
KST2 012222Z 00019KT 12/M03 A3033 RMK A01 T01181029  RH  036%=      5-min Rain = 0
KST2 012223Z 00018KT 12/M04 A3033 RMK A01 T01161035  RH  035%=      5-min Rain = 0
KST2 012224Z 01014KT 11/M04 A3033 RMK A01 T01121037  RH  035%=      5-min Rain = 0
KST2 012225Z 01012KT 11/M04 A3033 RMK A01 T01091037  RH  036%=      5-min Rain = 0
KST2 012226Z 00014KT 11/M03 A3033 RMK A01 T01081033  RH  037%=      5-min Rain = 0
KST2 012227Z 01015KT 11/M03 A3033 RMK A01 T01081034  RH  037%=      5-min Rain = 0
KST2 012228Z 01014KT 11/M04 A3033 RMK A01 T01071036  RH  036%=      5-min Rain = 0
KST2 012229Z 01016KT 11/M04 A3033 RMK A01 T01071039  RH  036%=      5-min Rain = 0
KST2 012230Z 02016KT 11/M04 A3033 RMK A01 T01071043  RH  035%=      5-min Rain = 0
KST2 012231Z 02014KT 11/M04 A3033 RMK A01 T01071041  RH  035%=      5-min Rain = 0
KST2 012232Z 02015KT 11/M04 A3033 RMK A01 T01091039  RH  035%=      5-min Rain = 0
KST2 012233Z 01014KT 11/M04 A3033 RMK A01 T01101037  RH  035%=      5-min Rain = 0
KST2 012234Z 01011KT 11/M04 A3033 RMK A01 T01101037  RH  036%=      5-min Rain = 0
KST2 012235Z 35010KT 11/M03 A3033 RMK A01 T01111034  RH  036%=      5-min Rain = 0
KST2 012236Z 35010KT 11/M04 A3033 RMK A01 T01121035  RH  035%=      5-min Rain = 0
KST2 012237Z 00013KT 11/M04 A3033 RMK A01 T01101035  RH  036%=      5-min Rain = 0
KST2 012238Z 01014KT 11/M03 A3033 RMK A01 T01091033  RH  037%=      5-min Rain = 0
KST2 012239Z 00014KT 11/M04 A3033 RMK A01 T01091035  RH  036%=      5-min Rain = 0
KST2 012240Z 01015KT 11/M04 A3033 RMK A01 T01071037  RH  036%=      5-min Rain = 0
KST2 012241Z 01017KT 11/M04 A3033 RMK A01 T01071039  RH  036%=      5-min Rain = 0
KST2 012242Z 01016KT 11/M04 A3033 RMK A01 T01061039  RH  036%=      5-min Rain = 0
KST2 012243Z 01015KT 11/M04 A3033 RMK A01 T01061037  RH  036%=      5-min Rain = 0
KST2 012244Z 01015KT 11/M04 A3033 RMK A01 T01061037  RH  036%=      5-min Rain = 0
KST2 012245Z 01013KT 11/M04 A3033 RMK A01 T01061035  RH  037%=      5-min Rain = 0
KST2 012246Z 01014KT 11/M03 A3033 RMK A01 T01071033  RH  037%=      5-min Rain = 0
KST2 012247Z 01013KT 11/M04 A3033 RMK A01 T01071036  RH  036%=      5-min Rain = 0
KST2 012248Z 01015KT 11/M04 A3033 RMK A01 T01071035  RH  037%=      5-min Rain = 0
KST2 012249Z 36015KT 11/M03 A3033 RMK A01 T01071033  RH  037%=      5-min Rain = 0
KST2 012250Z 00016KT 11/M03 A3033 RMK A01 T01071032  RH  037%=      5-min Rain = 0
KST2 012251Z 00015KT 11/M03 A3033 RMK A01 T01071034  RH  037%=      5-min Rain = 0
KST2 012252Z 01015KT 11/M03 A3033 RMK A01 T01071034  RH  037%=      5-min Rain = 0
KST2 012253Z 01015KT 11/M03 A3033 RMK A01 T01071032  RH  037%=      5-min Rain = 0
KST2 012254Z 36016KT 11/M03 A3033 RMK A01 T01081033  RH  037%=      5-min Rain = 0
KST2 012255Z 00016KT 11/M04 A3033 RMK A01 T01071036  RH  036%=      5-min Rain = 0
KST2 012256Z 00013KT 11/M04 A3033 RMK A01 T01071036  RH  037%=      5-min Rain = 0
KST2 012257Z 36013KT 11/M03 A3033 RMK A01 T01061033  RH  037%=      5-min Rain = 0
KST2 012258Z 00013KT 11/M03 A3033 RMK A01 T01061033  RH  037%=      5-min Rain = 0
KST2 012259Z 36012KT 11/M03 A3033 RMK A01 T01061032  RH  038%=      5-min Rain = 0
KST2 012300Z 36017KT 11/M03 A3033 RMK A01 T01061031  RH  038%=      5-min Rain = 0
KST2 012301Z 35012KT 11/M03 A3033 RMK A01 T01061031  RH  038%=      5-min Rain = 0
KST2 012302Z 34012KT 11/M03 A3033 RMK A01 T01061031  RH  038%=      5-min Rain = 0
KST2 012303Z 35012KT 11/M03 A3033 RMK A01 T01061032  RH  038%=      5-min Rain = 0
KST2 012304Z 00014KT 11/M03 A3033 RMK A01 T01051030  RH  039%=      5-min Rain = 0
KST2 012305Z 01015KT 11/M03 A3033 RMK A01 T01051033  RH  038%=      5-min Rain = 0
KST2 012306Z 01013KT 11/M03 A3033 RMK A01 T01051032  RH  038%=      5-min Rain = 0
KST2 012307Z 01013KT 11/M03 A3033 RMK A01 T01051032  RH  038%=      5-min Rain = 0
KST2 012308Z 01016KT 11/M03 A3033 RMK A01 T01051033  RH  038%=      5-min Rain = 0
KST2 012309Z 01014KT 11/M04 A3033 RMK A01 T01051036  RH  037%=      5-min Rain = 0
KST2 012310Z 01015KT 11/M03 A3033 RMK A01 T01061034  RH  037%=      5-min Rain = 0
KST2 012311Z 01015KT 11/M03 A3033 RMK A01 T01071034  RH  037%=      5-min Rain = 0
KST2 012312Z 01014KT 11/M04 A3033 RMK A01 T01071036  RH  036%=      5-min Rain = 0
KST2 012313Z 01013KT 11/M03 A3033 RMK A01 T01081033  RH  037%=      5-min Rain = 0
KST2 012314Z 36014KT 11/M03 A3033 RMK A01 T01091029  RH  038%=      5-min Rain = 0
KST2 012315Z 36014KT 11/M03 A3033 RMK A01 T01101032  RH  037%=      5-min Rain = 0
KST2 012316Z 01013KT 11/M03 A3033 RMK A01 T01091033  RH  037%=      5-min Rain = 0
KST2 012317Z 01016KT 11/M03 A3033 RMK A01 T01101029  RH  038%=      5-min Rain = 0
KST2 012318Z 00014KT 11/M03 A3033 RMK A01 T01111031  RH  037%=      5-min Rain = 0
KST2 012319Z 00015KT 11/M03 A3033 RMK A01 T01101032  RH  037%=      5-min Rain = 0
KST2 012320Z 00014KT 11/M03 A3033 RMK A01 T01101032  RH  037%=      5-min Rain = 0
KST2 012321Z 00013KT 11/M03 A3033 RMK A01 T01101033  RH  037%=      5-min Rain = 0
KST2 012322Z 01014KT 11/M03 A3033 RMK A01 T01091033  RH  037%=      5-min Rain = 0
KST2 012323Z 01012G17KT 11/M03 A3033 RMK A01 T01091033  RH  037%=      5-min Rain = 0
KST2 012324Z 01015KT 11/M03 A3033 RMK A01 T01101031  RH  037%=      5-min Rain = 0
KST2 012325Z 02015KT 11/M03 A3034 RMK A01 T01101031  RH  037%=      5-min Rain = 0
KST2 012326Z 01016KT 11/M03 A3034 RMK A01 T01101034  RH  036%=      5-min Rain = 0
KST2 012327Z 01015KT 11/M04 A3034 RMK A01 T01091035  RH  036%=      5-min Rain = 0
KST2 012328Z 00013KT 11/M03 A3034 RMK A01 T01081034  RH  037%=      5-min Rain = 0
KST2 012329Z 36017KT 11/M03 A3034 RMK A01 T01081033  RH  037%=      5-min Rain = 0
KST2 012330Z 36016KT 11/M04 A3034 RMK A01 T01071036  RH  036%=      5-min Rain = 0
KST2 012331Z 35013KT 11/M04 A3034 RMK A01 T01051036  RH  037%=      5-min Rain = 0
KST2 012332Z 35014KT 11/M04 A3034 RMK A01 T01061035  RH  037%=      5-min Rain = 0
KST2 012333Z 35016KT 11/M04 A3034 RMK A01 T01061037  RH  036%=      5-min Rain = 0
KST2 012334Z 01015KT 11/M04 A3034 RMK A01 T01051038  RH  037%=      5-min Rain = 0
KST2 012335Z 36013KT 11/M03 A3034 RMK A01 T01051034  RH  038%=      5-min Rain = 0
KST2 012336Z 35015KT 10/M04 A3034 RMK A01 T01041035  RH  037%=      5-min Rain = 0
KST2 012337Z 35014KT 10/M04 A3034 RMK A01 T01031039  RH  037%=      5-min Rain = 0
KST2 012338Z 36012KT 10/M04 A3034 RMK A01 T01031039  RH  037%=      5-min Rain = 0
KST2 012339Z 35013KT 10/M04 A3034 RMK A01 T01031037  RH  037%=      5-min Rain = 0
KST2 012340Z 36013KT 10/M04 A3034 RMK A01 T01041038  RH  037%=      5-min Rain = 0
KST2 012341Z 36012KT 10/M04 A3034 RMK A01 T01041037  RH  037%=      5-min Rain = 0
KST2 012342Z 35012KT 10/M04 A3034 RMK A01 T01041035  RH  038%=      5-min Rain = 0
KST2 012343Z 35013KT 10/M04 A3034 RMK A01 T01041035  RH  037%=      5-min Rain = 0
KST2 012344Z 36011KT 10/M04 A3034 RMK A01 T01031035  RH  038%=      5-min Rain = 0
KST2 012345Z 00015KT 10/M03 A3034 RMK A01 T01021034  RH  038%=      5-min Rain = 0
KST2 012346Z 01014KT 10/M04 A3034 RMK A01 T01011035  RH  038%=      5-min Rain = 0
KST2 012347Z 00012KT 10/M04 A3034 RMK A01 T01001036  RH  038%=      5-min Rain = 0
KST2 012348Z 36012KT 10/M04 A3034 RMK A01 T00991036  RH  038%=      5-min Rain = 0
KST2 012349Z 36012KT 10/M03 A3034 RMK A01 T00991034  RH  039%=      5-min Rain = 0
KST2 012350Z 36012KT 10/M04 A3034 RMK A01 T00981037  RH  038%=      5-min Rain = 0
KST2 012351Z 36012KT 10/M04 A3034 RMK A01 T00981037  RH  038%=      5-min Rain = 0
KST2 012352Z 00014KT 10/M04 A3034 RMK A01 T00981036  RH  039%=      5-min Rain = 0
KST2 012353Z 00015KT 10/M04 A3034 RMK A01 T00971039  RH  038%=      5-min Rain = 0
KST2 012354Z 00014KT 10/M04 A3034 RMK A01 T00971041  RH  038%=      5-min Rain = 0
KST2 012355Z 36011KT 10/M04 A3034 RMK A01 T00971037  RH  039%=      5-min Rain = 0
KST2 012356Z 36014KT 10/M04 A3034 RMK A01 T00961037  RH  039%=      5-min Rain = 0
KST2 012357Z 35014KT 10/M04 A3034 RMK A01 T00961041  RH  038%=      5-min Rain = 0
KST2 012358Z 35013KT 10/M04 A3034 RMK A01 T00961042  RH  037%=      5-min Rain = 0
KST2 012359Z 35012KT 10/M04 A3034 RMK A01 T00961041  RH  038%=      5-min Rain = 0
KST2 020000Z 35012KT 10/M04 A3034 RMK A01 T00951041  RH  038%=      5-min Rain = 0
KST2 020001Z 35011KT 10/M04 A3034 RMK A01 T00961039  RH  038%=      5-min Rain = 0
KST2 020002Z 36013KT 10/M04 A3034 RMK A01 T00951039  RH  039%=      5-min Rain = 0
KST2 020003Z 36012KT 10/M04 A3035 RMK A01 T00951039  RH  039%=      5-min Rain = 0
KST2 020004Z 00013KT 10/M04 A3035 RMK A01 T00951037  RH  039%=      5-min Rain = 0
KST2 020005Z 00013KT 09/M04 A3035 RMK A01 T00941039  RH  039%=      5-min Rain = 0
KST2 020006Z 00011KT 09/M04 A3035 RMK A01 T00941038  RH  039%=      5-min Rain = 0
KST2 020007Z 36011KT 09/M04 A3035 RMK A01 T00941038  RH  039%=      5-min Rain = 0
KST2 020008Z 35011KT 09/M04 A3035 RMK A01 T00941040  RH  039%=      5-min Rain = 0
KST2 020009Z 35012KT 09/M04 A3035 RMK A01 T00941041  RH  038%=      5-min Rain = 0
KST2 020010Z 35010KT 09/M04 A3035 RMK A01 T00931041  RH  039%=      5-min Rain = 0
KST2 020011Z 36011KT 09/M04 A3035 RMK A01 T00931040  RH  039%=      5-min Rain = 0
KST2 020012Z 35011KT 09/M04 A3035 RMK A01 T00931040  RH  039%=      5-min Rain = 0
KST2 020013Z 35011KT 09/M04 A3035 RMK A01 T00931039  RH  039%=      5-min Rain = 0
KST2 020014Z 35011KT 09/M04 A3035 RMK A01 T00921039  RH  039%=      5-min Rain = 0
KST2 020015Z 35009KT 09/M04 A3035 RMK A01 T00921039  RH  039%=      5-min Rain = 0
KST2 020016Z 35010KT 09/M04 A3035 RMK A01 T00921038  RH  040%=      5-min Rain = 0
KST2 020017Z 35011KT 09/M04 A3035 RMK A01 T00911039  RH  040%=      5-min Rain = 0
KST2 020018Z 35010KT 09/M04 A3035 RMK A01 T00911040  RH  039%=      5-min Rain = 0
KST2 020019Z 36011KT 09/M04 A3035 RMK A01 T00911040  RH  039%=      5-min Rain = 0
KST2 020020Z 35011KT 09/M04 A3035 RMK A01 T00911041  RH  039%=      5-min Rain = 0
KST2 020021Z 35012KT 09/M04 A3035 RMK A01 T00911041  RH  039%=      5-min Rain = 0
KST2 020022Z 35011KT 09/M04 A3035 RMK A01 T00911041  RH  039%=      5-min Rain = 0
KST2 020023Z 35010KT 09/M04 A3035 RMK A01 T00911042  RH  039%=      5-min Rain = 0
KST2 020024Z 35010KT 09/M04 A3035 RMK A01 T00911039  RH  040%=      5-min Rain = 0
KST2 020025Z 35010KT 09/M04 A3035 RMK A01 T00901039  RH  040%=      5-min Rain = 0
KST2 020026Z 35009KT 09/M04 A3035 RMK A01 T00911039  RH  040%=      5-min Rain = 0
KST2 020027Z 35009KT 09/M04 A3035 RMK A01 T00901040  RH  040%=      5-min Rain = 0
KST2 020028Z 36009KT 09/M04 A3035 RMK A01 T00901040  RH  040%=      5-min Rain = 0
KST2 020029Z 35008KT 09/M04 A3035 RMK A01 T00901039  RH  040%=      5-min Rain = 0
KST2 020030Z 35009KT 09/M04 A3035 RMK A01 T00891039  RH  040%=      5-min Rain = 0
KST2 020031Z 35009KT 09/M04 A3035 RMK A01 T00891038  RH  040%=      5-min Rain = 0
KST2 020032Z 35008KT 09/M04 A3036 RMK A01 T00891037  RH  041%=      5-min Rain = 0
KST2 020033Z 35007KT 09/M04 A3036 RMK A01 T00881037  RH  041%=      5-min Rain = 0
KST2 020034Z 35008KT 09/M04 A3036 RMK A01 T00881036  RH  041%=      5-min Rain = 0
KST2 020035Z 35008KT 09/M04 A3036 RMK A01 T00881036  RH  041%=      5-min Rain = 0
KST2 020036Z 35007KT 09/M04 A3036 RMK A01 T00881037  RH  041%=      5-min Rain = 0
KST2 020037Z 35009KT 09/M04 A3036 RMK A01 T00881036  RH  041%=      5-min Rain = 0
KST2 020038Z 35008KT 09/M04 A3036 RMK A01 T00881037  RH  041%=      5-min Rain = 0
KST2 020039Z 35008KT 09/M04 A3036 RMK A01 T00881037  RH  041%=      5-min Rain = 0
KST2 020040Z 35008KT 09/M04 A3036 RMK A01 T00881038  RH  041%=      5-min Rain = 0
KST2 020041Z 35009KT 09/M04 A3036 RMK A01 T00881038  RH  041%=      5-min Rain = 0
KST2 020042Z 35008KT 09/M04 A3036 RMK A01 T00881037  RH  041%=      5-min Rain = 0
KST2 020043Z 35008KT 09/M04 A3036 RMK A01 T00871036  RH  042%=      5-min Rain = 0
KST2 020044Z 35009KT 09/M04 A3036 RMK A01 T00871037  RH  041%=      5-min Rain = 0
KST2 020045Z 35009KT 09/M04 A3036 RMK A01 T00871038  RH  041%=      5-min Rain = 0
KST2 020046Z 36010KT 09/M04 A3036 RMK A01 T00871038  RH  041%=      5-min Rain = 0
KST2 020047Z 36009KT 09/M04 A3036 RMK A01 T00871039  RH  041%=      5-min Rain = 0
KST2 020048Z 36010KT 09/M04 A3036 RMK A01 T00871038  RH  041%=      5-min Rain = 0
KST2 020049Z 00013KT 09/M04 A3036 RMK A01 T00871042  RH  040%=      5-min Rain = 0
KST2 020050Z 00012KT 09/M05 A3036 RMK A01 T00871045  RH  039%=      5-min Rain = 0
KST2 020051Z 00010KT 09/M04 A3036 RMK A01 T00871044  RH  039%=      5-min Rain = 0
KST2 020052Z 00011KT 09/M04 A3036 RMK A01 T00871042  RH  040%=      5-min Rain = 0
KST2 020053Z 00011KT 09/M04 A3036 RMK A01 T00871043  RH  040%=      5-min Rain = 0
KST2 020054Z 00012KT 09/M04 A3036 RMK A01 T00871044  RH  039%=      5-min Rain = 0
KST2 020055Z 00010KT 09/M04 A3036 RMK A01 T00871044  RH  039%=      5-min Rain = 0
KST2 020056Z 36011KT 09/M04 A3036 RMK A01 T00871044  RH  040%=      5-min Rain = 0
KST2 020057Z 00011KT 09/M04 A3036 RMK A01 T00861044  RH  039%=      5-min Rain = 0
KST2 020058Z 00009KT 09/M04 A3036 RMK A01 T00861044  RH  040%=      5-min Rain = 0
KST2 020059Z 00010KT 09/M04 A3036 RMK A01 T00861044  RH  039%=      5-min Rain = 0
KST2 020100Z 36009KT 09/M04 A3036 RMK A01 T00861044  RH  039%=      5-min Rain = 0
KST2 020101Z 00008KT 09/M04 A3036 RMK A01 T00861044  RH  040%=      5-min Rain = 0
KST2 020102Z 36009KT 09/M04 A3036 RMK A01 T00861043  RH  040%=      5-min Rain = 0
KST2 020103Z 36007KT 09/M04 A3036 RMK A01 T00851043  RH  040%=      5-min Rain = 0
KST2 020104Z 36007KT 09/M04 A3036 RMK A01 T00851042  RH  040%=      5-min Rain = 0
KST2 020105Z 36008KT 09/M04 A3037 RMK A01 T00851043  RH  040%=      5-min Rain = 0
KST2 020106Z 00008KT 09/M05 A3037 RMK A01 T00851045  RH  040%=      5-min Rain = 0
KST2 020107Z 00008KT 09/M05 A3037 RMK A01 T00851045  RH  040%=      5-min Rain = 0
KST2 020108Z 00007KT 09/M04 A3037 RMK A01 T00851044  RH  040%=      5-min Rain = 0
KST2 020109Z 00007KT 09/M04 A3037 RMK A01 T00851043  RH  040%=      5-min Rain = 0
KST2 020110Z 00008KT 08/M04 A3037 RMK A01 T00841043  RH  040%=      5-min Rain = 0
KST2 020111Z 00008KT 08/M04 A3037 RMK A01 T00841043  RH  040%=      5-min Rain = 0
KST2 020112Z 00007KT 08/M04 A3037 RMK A01 T00841044  RH  040%=      5-min Rain = 0
KST2 020113Z 00009KT 08/M04 A3037 RMK A01 T00841044  RH  040%=      5-min Rain = 0
KST2 020114Z 00008KT 08/M05 A3037 RMK A01 T00841045  RH  040%=      5-min Rain = 0
KST2 020115Z 00007KT 08/M04 A3037 RMK A01 T00841043  RH  040%=      5-min Rain = 0
KST2 020116Z 01007KT 08/M04 A3037 RMK A01 T00841041  RH  041%=      5-min Rain = 0
KST2 020117Z 36007KT 08/M04 A3037 RMK A01 T00831042  RH  041%=      5-min Rain = 0
KST2 020118Z 00007KT 08/M04 A3037 RMK A01 T00831042  RH  041%=      5-min Rain = 0
KST2 020119Z 00006KT 08/M04 A3037 RMK A01 T00831043  RH  040%=      5-min Rain = 0
KST2 020120Z 36007KT 08/M04 A3037 RMK A01 T00831042  RH  041%=      5-min Rain = 0
KST2 020121Z 36007KT 08/M04 A3037 RMK A01 T00831041  RH  041%=      5-min Rain = 0
KST2 020122Z 36007KT 08/M04 A3037 RMK A01 T00831042  RH  041%=      5-min Rain = 0
KST2 020123Z 00006KT 08/M04 A3037 RMK A01 T00831042  RH  041%=      5-min Rain = 0
KST2 020124Z 36006KT 08/M04 A3037 RMK A01 T00831040  RH  042%=      5-min Rain = 0
KST2 020125Z 00006KT 08/M04 A3037 RMK A01 T00821040  RH  042%=      5-min Rain = 0
KST2 020126Z 00006KT 08/M04 A3037 RMK A01 T00821039  RH  042%=      5-min Rain = 0
KST2 020127Z 01006KT 08/M04 A3037 RMK A01 T00811039  RH  043%=      5-min Rain = 0
KST2 020128Z 00006KT 08/M04 A3037 RMK A01 T00811038  RH  043%=      5-min Rain = 0
KST2 020129Z 00006KT 08/M04 A3037 RMK A01 T00811038  RH  043%=      5-min Rain = 0
KST2 020130Z 00006KT 08/M04 A3037 RMK A01 T00801038  RH  043%=      5-min Rain = 0
KST2 020131Z 00007KT 08/M04 A3037 RMK A01 T00801038  RH  043%=      5-min Rain = 0
KST2 020132Z 00006KT 08/M04 A3037 RMK A01 T00801038  RH  043%=      5-min Rain = 0
KST2 020133Z 00006KT 08/M04 A3037 RMK A01 T00801038  RH  043%=      5-min Rain = 0
KST2 020134Z 00006KT 08/M04 A3037 RMK A01 T00801037  RH  043%=      5-min Rain = 0
KST2 020135Z 36006KT 08/M04 A3037 RMK A01 T00801037  RH  044%=      5-min Rain = 0
KST2 020136Z 36006KT 08/M04 A3037 RMK A01 T00791037  RH  044%=      5-min Rain = 0
KST2 020137Z 36006KT 08/M04 A3037 RMK A01 T00791037  RH  044%=      5-min Rain = 0
KST2 020138Z 36006KT 08/M04 A3037 RMK A01 T00791038  RH  043%=      5-min Rain = 0
KST2 020139Z 36006KT 08/M04 A3037 RMK A01 T00791038  RH  043%=      5-min Rain = 0
KST2 020140Z 36006KT 08/M04 A3037 RMK A01 T00791037  RH  044%=      5-min Rain = 0
KST2 020141Z 36006KT 08/M04 A3037 RMK A01 T00781038  RH  044%=      5-min Rain = 0
KST2 020142Z 36006KT 08/M04 A3037 RMK A01 T00781038  RH  044%=      5-min Rain = 0
KST2 020143Z 00006KT 08/M04 A3037 RMK A01 T00771038  RH  044%=      5-min Rain = 0
KST2 020144Z 36006KT 08/M04 A3037 RMK A01 T00771037  RH  044%=      5-min Rain = 0
KST2 020145Z 36006KT 08/M04 A3037 RMK A01 T00771038  RH  044%=      5-min Rain = 0
KST2 020146Z 36006KT 08/M04 A3037 RMK A01 T00761037  RH  044%=      5-min Rain = 0
KST2 020147Z 36006KT 08/M04 A3037 RMK A01 T00761038  RH  044%=      5-min Rain = 0
KST2 020148Z 36006KT 08/M04 A3037 RMK A01 T00751037  RH  045%=      5-min Rain = 0
KST2 020149Z 00006KT 08/M04 A3037 RMK A01 T00751037  RH  045%=      5-min Rain = 0
KST2 020150Z 00006KT 07/M04 A3037 RMK A01 T00741036  RH  046%=      5-min Rain = 0
KST2 020151Z 00006KT 07/M04 A3037 RMK A01 T00741035  RH  046%=      5-min Rain = 0
KST2 020152Z 00006KT 07/M04 A3037 RMK A01 T00731035  RH  046%=      5-min Rain = 0
KST2 020153Z 00006KT 07/M03 A3037 RMK A01 T00721034  RH  047%=      5-min Rain = 0
KST2 020154Z 00006KT 07/M03 A3037 RMK A01 T00721034  RH  047%=      5-min Rain = 0
KST2 020155Z 00006KT 07/M03 A3037 RMK A01 T00711034  RH  047%=      5-min Rain = 0
KST2 020156Z 00006KT 07/M03 A3037 RMK A01 T00711033  RH  048%=      5-min Rain = 0
KST2 020157Z 00006KT 07/M03 A3037 RMK A01 T00701032  RH  048%=      5-min Rain = 0
KST2 020158Z 00006KT 07/M03 A3037 RMK A01 T00691032  RH  049%=      5-min Rain = 0
KST2 020159Z 00006KT 07/M03 A3037 RMK A01 T00681032  RH  049%=      5-min Rain = 0
KST2 020200Z 36006KT 07/M03 A3037 RMK A01 T00671034  RH  048%=      5-min Rain = 0
KST2 020201Z 35006KT 07/M03 A3037 RMK A01 T00671034  RH  048%=      5-min Rain = 0
KST2 020202Z 35006KT 07/M03 A3037 RMK A01 T00671033  RH  049%=      5-min Rain = 0
KST2 020203Z 35006KT 07/M03 A3037 RMK A01 T00661033  RH  049%=      5-min Rain = 0
KST2 020204Z 35006KT 07/M03 A3037 RMK A01 T00651033  RH  050%=      5-min Rain = 0
KST2 020205Z 34006KT 06/M03 A3037 RMK A01 T00641033  RH  050%=      5-min Rain = 0
KST2 020206Z 35006KT 06/M03 A3037 RMK A01 T00641033  RH  050%=      5-min Rain = 0
KST2 020207Z 34006KT 06/M03 A3037 RMK A01 T00641032  RH  050%=      5-min Rain = 0
KST2 020208Z 34006KT 06/M03 A3037 RMK A01 T00641032  RH  050%=      5-min Rain = 0
KST2 020209Z 34007KT 06/M03 A3037 RMK A01 T00631032  RH  051%=      5-min Rain = 0
KST2 020210Z 34007KT 06/M03 A3037 RMK A01 T00631032  RH  051%=      5-min Rain = 0
KST2 020211Z 34007KT 06/M03 A3037 RMK A01 T00631032  RH  051%=      5-min Rain = 0
KST2 020212Z 34006KT 06/M03 A3037 RMK A01 T00631032  RH  051%=      5-min Rain = 0
KST2 020213Z 34006KT 06/M03 A3037 RMK A01 T00631033  RH  050%=      5-min Rain = 0
KST2 020214Z 34006KT 06/M03 A3037 RMK A01 T00631033  RH  050%=      5-min Rain = 0
KST2 020215Z 34006KT 06/M03 A3037 RMK A01 T00631033  RH  050%=      5-min Rain = 0
KST2 020216Z 34006KT 06/M03 A3037 RMK A01 T00631033  RH  050%=      5-min Rain = 0
KST2 020217Z 34006KT 06/M03 A3037 RMK A01 T00631033  RH  050%=      5-min Rain = 0
KST2 020218Z 33006KT 06/M03 A3037 RMK A01 T00631033  RH  050%=      5-min Rain = 0
KST2 020219Z 33005KT 06/M03 A3037 RMK A01 T00631033  RH  050%=      5-min Rain = 0
KST2 020220Z 33005KT 06/M03 A3037 RMK A01 T00631033  RH  050%=      5-min Rain = 0
KST2 020221Z 33005KT 06/M03 A3037 RMK A01 T00631032  RH  051%=      5-min Rain = 0
KST2 020222Z 33004KT 06/M03 A3037 RMK A01 T00631032  RH  051%=      5-min Rain = 0
KST2 020223Z 32004KT 06/M03 A3037 RMK A01 T00631031  RH  051%=      5-min Rain = 0
KST2 020224Z 33004KT 06/M03 A3037 RMK A01 T00631030  RH  051%=      5-min Rain = 0
KST2 020225Z 33004KT 06/M03 A3037 RMK A01 T00621029  RH  052%=      5-min Rain = 0
KST2 020226Z 33004KT 06/M03 A3037 RMK A01 T00621029  RH  052%=      5-min Rain = 0
KST2 020227Z 33004KT 06/M03 A3037 RMK A01 T00611029  RH  052%=      5-min Rain = 0
KST2 020228Z 33004KT 06/M03 A3037 RMK A01 T00611028  RH  053%=      5-min Rain = 0
KST2 020229Z 34004KT 06/M03 A3037 RMK A01 T00611028  RH  053%=      5-min Rain = 0
KST2 020230Z 34005KT 06/M03 A3037 RMK A01 T00611028  RH  053%=      5-min Rain = 0
KST2 020231Z 34005KT 06/M03 A3037 RMK A01 T00601028  RH  053%=      5-min Rain = 0
KST2 020232Z 34005KT 06/M03 A3037 RMK A01 T00611028  RH  053%=      5-min Rain = 0
KST2 020233Z 33005KT 06/M03 A3037 RMK A01 T00601028  RH  053%=      5-min Rain = 0
KST2 020234Z 33004KT 06/M03 A3037 RMK A01 T00601027  RH  054%=      5-min Rain = 0
KST2 020235Z 33004KT 06/M03 A3037 RMK A01 T00601027  RH  054%=      5-min Rain = 0
KST2 020236Z 33004KT 06/M03 A3037 RMK A01 T00591027  RH  054%=      5-min Rain = 0
KST2 020237Z 33004KT 06/M03 A3037 RMK A01 T00591026  RH  054%=      5-min Rain = 0
KST2 020238Z 33003KT 06/M03 A3037 RMK A01 T00581026  RH  055%=      5-min Rain = 0
KST2 020239Z 32003KT 06/M03 A3037 RMK A01 T00581025  RH  055%=      5-min Rain = 0
KST2 020240Z 32003KT 06/M03 A3037 RMK A01 T00581026  RH  055%=      5-min Rain = 0
KST2 020241Z 32003KT 06/M03 A3037 RMK A01 T00571026  RH  055%=      5-min Rain = 0
KST2 020242Z 32003KT 06/M03 A3037 RMK A01 T00571026  RH  055%=      5-min Rain = 0
KST2 020243Z 31003KT 06/M03 A3037 RMK A01 T00571026  RH  055%=      5-min Rain = 0
KST2 020244Z 30003KT 06/M02 A3037 RMK A01 T00571024  RH  056%=      5-min Rain = 0
KST2 020245Z 30003KT 06/M02 A3037 RMK A01 T00571023  RH  057%=      5-min Rain = 0
KST2 020246Z 30003KT 06/M02 A3037 RMK A01 T00561023  RH  057%=      5-min Rain = 0
KST2 020247Z 30003KT 06/M02 A3037 RMK A01 T00561024  RH  056%=      5-min Rain = 0
KST2 020248Z 30003KT 06/M02 A3037 RMK A01 T00561024  RH  057%=      5-min Rain = 0
KST2 020249Z 31003KT 06/M02 A3037 RMK A01 T00561023  RH  057%=      5-min Rain = 0
KST2 020250Z 31003KT 06/M02 A3037 RMK A01 T00551021  RH  058%=      5-min Rain = 0
KST2 020251Z 30004KT 05/M02 A3038 RMK A01 T00541020  RH  059%=      5-min Rain = 0
KST2 020252Z 30004KT 05/M02 A3038 RMK A01 T00511020  RH  060%=      5-min Rain = 0
KST2 020253Z 30003KT 05/M02 A3038 RMK A01 T00501021  RH  060%=      5-min Rain = 0
KST2 020254Z 29003KT 05/M02 A3038 RMK A01 T00491020  RH  061%=      5-min Rain = 0
KST2 020255Z 29003KT 05/M02 A3038 RMK A01 T00481019  RH  062%=      5-min Rain = 0
KST2 020256Z 29003KT 05/M02 A3038 RMK A01 T00471019  RH  062%=      5-min Rain = 0
KST2 020257Z 29003KT 05/M02 A3038 RMK A01 T00471020  RH  062%=      5-min Rain = 0
KST2 020258Z 29003KT 05/M02 A3038 RMK A01 T00471021  RH  062%=      5-min Rain = 0
KST2 020259Z 30003KT 05/M02 A3038 RMK A01 T00471020  RH  062%=      5-min Rain = 0
KST2 020300Z 30003KT 05/M02 A3038 RMK A01 T00471020  RH  062%=      5-min Rain = 0
KST2 020301Z 30003KT 05/M02 A3037 RMK A01 T00471021  RH  062%=      5-min Rain = 0
KST2 020302Z 30003KT 05/M02 A3037 RMK A01 T00471023  RH  060%=      5-min Rain = 0
KST2 020303Z 30003KT 05/M03 A3037 RMK A01 T00481025  RH  059%=      5-min Rain = 0
KST2 020304Z 30003KT 05/M02 A3038 RMK A01 T00491024  RH  059%=      5-min Rain = 0
KST2 020305Z 30003KT 05/M03 A3038 RMK A01 T00501025  RH  059%=      5-min Rain = 0
KST2 020306Z 30003KT 05/M02 A3038 RMK A01 T00501024  RH  059%=      5-min Rain = 0
KST2 020307Z 29003KT 05/M02 A3038 RMK A01 T00501024  RH  059%=      5-min Rain = 0
KST2 020308Z 29004KT 05/M02 A3038 RMK A01 T00501023  RH  059%=      5-min Rain = 0
KST2 020309Z 29004KT 05/M02 A3038 RMK A01 T00501022  RH  060%=      5-min Rain = 0
KST2 020310Z 29004KT 05/M02 A3038 RMK A01 T00501019  RH  061%=      5-min Rain = 0
KST2 020311Z 29004KT 05/M02 A3038 RMK A01 T00491018  RH  062%=      5-min Rain = 0
KST2 020312Z 29004KT 05/M02 A3038 RMK A01 T00481017  RH  062%=      5-min Rain = 0
KST2 020313Z 28004KT 05/M02 A3038 RMK A01 T00481017  RH  063%=      5-min Rain = 0
KST2 020314Z 28004KT 05/M02 A3038 RMK A01 T00481016  RH  063%=      5-min Rain = 0
KST2 020315Z 28004KT 05/M02 A3038 RMK A01 T00481015  RH  064%=      5-min Rain = 0
KST2 020316Z 27004KT 05/M01 A3038 RMK A01 T00481014  RH  064%=      5-min Rain = 0
KST2 020317Z 27004KT 05/M01 A3038 RMK A01 T00491014  RH  064%=      5-min Rain = 0
KST2 020318Z 26004KT 05/M02 A3038 RMK A01 T00491015  RH  064%=      5-min Rain = 0
KST2 020319Z 26004KT 05/M02 A3038 RMK A01 T00491016  RH  063%=      5-min Rain = 0
KST2 020320Z 26004KT 05/M02 A3038 RMK A01 T00491016  RH  063%=      5-min Rain = 0
KST2 020321Z 26004KT 05/M02 A3038 RMK A01 T00491017  RH  063%=      5-min Rain = 0
KST2 020322Z 26004KT 05/M02 A3038 RMK A01 T00491017  RH  063%=      5-min Rain = 0
KST2 020323Z 26004KT 05/M02 A3038 RMK A01 T00491017  RH  062%=      5-min Rain = 0
KST2 020324Z 27004KT 05/M02 A3038 RMK A01 T00481017  RH  063%=      5-min Rain = 0
KST2 020325Z 27004KT 05/M02 A3038 RMK A01 T00471017  RH  063%=      5-min Rain = 0
KST2 020326Z 27004KT 05/M02 A3038 RMK A01 T00481017  RH  063%=      5-min Rain = 0
KST2 020327Z 28004KT 05/M02 A3038 RMK A01 T00471016  RH  063%=      5-min Rain = 0
KST2 020328Z 28004KT 05/M02 A3038 RMK A01 T00471016  RH  064%=      5-min Rain = 0
KST2 020329Z 28005KT 05/M02 A3038 RMK A01 T00471015  RH  064%=      5-min Rain = 0
KST2 020330Z 28005KT 05/M02 A3038 RMK A01 T00461016  RH  064%=      5-min Rain = 0
KST2 020331Z 29005KT 05/M02 A3038 RMK A01 T00461017  RH  064%=      5-min Rain = 0
KST2 020332Z 29005KT 05/M02 A3038 RMK A01 T00451018  RH  064%=      5-min Rain = 0
KST2 020333Z 29005KT 05/M02 A3038 RMK A01 T00451019  RH  063%=      5-min Rain = 0
KST2 020334Z 30005KT 05/M02 A3038 RMK A01 T00451019  RH  064%=      5-min Rain = 0
KST2 020335Z 30005KT 04/M02 A3038 RMK A01 T00441019  RH  064%=      5-min Rain = 0
KST2 020336Z 30005KT 04/M02 A3038 RMK A01 T00441019  RH  064%=      5-min Rain = 0
KST2 020337Z 29005KT 04/M02 A3038 RMK A01 T00441019  RH  063%=      5-min Rain = 0
KST2 020338Z 29005KT 04/M02 A3038 RMK A01 T00441020  RH  063%=      5-min Rain = 0
KST2 020339Z 29005KT 04/M02 A3038 RMK A01 T00441020  RH  063%=      5-min Rain = 0
KST2 020340Z 29005KT 04/M02 A3038 RMK A01 T00441020  RH  063%=      5-min Rain = 0
KST2 020341Z 29005KT 04/M02 A3038 RMK A01 T00441021  RH  063%=      5-min Rain = 0
KST2 020342Z 29004KT 04/M02 A3038 RMK A01 T00441021  RH  063%=      5-min Rain = 0
KST2 020343Z 28004KT 04/M02 A3038 RMK A01 T00431021  RH  063%=      5-min Rain = 0
KST2 020344Z 28004KT 04/M02 A3038 RMK A01 T00431022  RH  063%=      5-min Rain = 0
KST2 020345Z 28004KT 04/M02 A3038 RMK A01 T00431022  RH  063%=      5-min Rain = 0
KST2 020346Z 28004KT 04/M02 A3038 RMK A01 T00431022  RH  063%=      5-min Rain = 0
KST2 020347Z 28003KT 04/M02 A3038 RMK A01 T00431022  RH  063%=      5-min Rain = 0
KST2 020348Z 27003KT 04/M02 A3038 RMK A01 T00431020  RH  064%=      5-min Rain = 0
KST2 020349Z 27003KT 04/M02 A3038 RMK A01 T00421019  RH  064%=      5-min Rain = 0
KST2 020350Z 27003KT 04/M02 A3038 RMK A01 T00421019  RH  064%=      5-min Rain = 0
KST2 020351Z 26003KT 04/M02 A3038 RMK A01 T00431017  RH  065%=      5-min Rain = 0
KST2 020352Z 26003KT 04/M02 A3038 RMK A01 T00421019  RH  064%=      5-min Rain = 0
KST2 020353Z 25003KT 04/M02 A3038 RMK A01 T00421020  RH  064%=      5-min Rain = 0
KST2 020354Z 25003KT 04/M02 A3038 RMK A01 T00421020  RH  064%=      5-min Rain = 0
KST2 020355Z 24002KT 04/M02 A3038 RMK A01 T00411020  RH  064%=      5-min Rain = 0
KST2 020356Z 23002KT 04/M02 A3038 RMK A01 T00381024  RH  064%=      5-min Rain = 0
KST2 020357Z 21002KT 04/M03 A3038 RMK A01 T00361026  RH  064%=      5-min Rain = 0
KST2 020358Z 21002KT 03/M03 A3038 RMK A01 T00341026  RH  065%=      5-min Rain = 0
KST2 020359Z 21002KT 03/M03 A3038 RMK A01 T00321026  RH  065%=      5-min Rain = 0
KST2 020400Z 22002KT 03/M03 A3038 RMK A01 T00311026  RH  066%=      5-min Rain = 0
KST2 020401Z 22002KT 03/M03 A3038 RMK A01 T00301026  RH  067%=      5-min Rain = 0
KST2 020402Z 23002KT 03/M02 A3038 RMK A01 T00301024  RH  068%=      5-min Rain = 0
KST2 020403Z 23003KT 03/M02 A3038 RMK A01 T00301022  RH  069%=      5-min Rain = 0
KST2 020404Z 24003KT 03/M02 A3038 RMK A01 T00301021  RH  069%=      5-min Rain = 0
KST2 020405Z 24003KT 03/M02 A3038 RMK A01 T00311022  RH  068%=      5-min Rain = 0
KST2 020406Z 24003KT 03/M02 A3038 RMK A01 T00321024  RH  067%=      5-min Rain = 0
KST2 020407Z 24003KT 03/M03 A3038 RMK A01 T00331026  RH  065%=      5-min Rain = 0
KST2 020408Z 24002KT 03/M03 A3038 RMK A01 T00341026  RH  065%=      5-min Rain = 0
KST2 020409Z 23002KT 04/M03 A3038 RMK A01 T00351027  RH  064%=      5-min Rain = 0
KST2 020410Z 22002KT 04/M03 A3038 RMK A01 T00361026  RH  064%=      5-min Rain = 0
KST2 020411Z 21003KT 04/M02 A3038 RMK A01 T00351024  RH  065%=      5-min Rain = 0
KST2 020412Z 19003KT 03/M02 A3038 RMK A01 T00341024  RH  066%=      5-min Rain = 0
KST2 020413Z 18003KT 03/M02 A3038 RMK A01 T00331024  RH  066%=      5-min Rain = 0
KST2 020414Z 18004KT 03/M03 A3038 RMK A01 T00331026  RH  065%=      5-min Rain = 0
KST2 020415Z 18004KT 03/M03 A3038 RMK A01 T00341027  RH  064%=      5-min Rain = 0
KST2 020416Z 18004KT 03/M03 A3038 RMK A01 T00331029  RH  064%=      5-min Rain = 0
KST2 020417Z 18004KT 03/M03 A3038 RMK A01 T00331029  RH  064%=      5-min Rain = 0
KST2 020418Z 19004KT 03/M03 A3038 RMK A01 T00321029  RH  064%=      5-min Rain = 0
KST2 020419Z 20004KT 03/M03 A3038 RMK A01 T00331030  RH  064%=      5-min Rain = 0
KST2 020420Z 20003KT 03/M03 A3038 RMK A01 T00321029  RH  064%=      5-min Rain = 0
KST2 020421Z 20004KT 03/M03 A3038 RMK A01 T00331027  RH  065%=      5-min Rain = 0
KST2 020422Z 20003KT 03/M03 A3038 RMK A01 T00321027  RH  065%=      5-min Rain = 0
KST2 020423Z 20003KT 03/M03 A3038 RMK A01 T00311028  RH  065%=      5-min Rain = 0
KST2 020424Z 20004KT 03/M03 A3038 RMK A01 T00311029  RH  065%=      5-min Rain = 0
KST2 020425Z 20004KT 03/M03 A3038 RMK A01 T00311029  RH  065%=      5-min Rain = 0
KST2 020426Z 20004KT 03/M03 A3038 RMK A01 T00321029  RH  064%=      5-min Rain = 0
KST2 020427Z 20004KT 03/M03 A3038 RMK A01 T00311029  RH  064%=      5-min Rain = 0
KST2 020428Z 20004KT 03/M03 A3038 RMK A01 T00301030  RH  065%=      5-min Rain = 0
KST2 020429Z 21004KT 03/M03 A3038 RMK A01 T00301031  RH  064%=      5-min Rain = 0
KST2 020430Z 21004KT 03/M03 A3038 RMK A01 T00291032  RH  064%=      5-min Rain = 0
KST2 020431Z 21005KT 03/M03 A3038 RMK A01 T00281031  RH  065%=      5-min Rain = 0
KST2 020432Z 21004KT 03/M03 A3038 RMK A01 T00281031  RH  065%=      5-min Rain = 0
KST2 020433Z 21004KT 03/M03 A3038 RMK A01 T00271031  RH  065%=      5-min Rain = 0
KST2 020434Z 22004KT 03/M03 A3038 RMK A01 T00271031  RH  065%=      5-min Rain = 0
KST2 020435Z 22004KT 03/M03 A3038 RMK A01 T00261031  RH  066%=      5-min Rain = 0
KST2 020436Z 23004KT 03/M03 A3038 RMK A01 T00261031  RH  066%=      5-min Rain = 0
KST2 020437Z 23004KT 03/M03 A3038 RMK A01 T00261031  RH  066%=      5-min Rain = 0
KST2 020438Z 23005KT 03/M03 A3038 RMK A01 T00261031  RH  066%=      5-min Rain = 0
KST2 020439Z 24005KT 03/M03 A3038 RMK A01 T00251031  RH  067%=      5-min Rain = 0
KST2 020440Z 24005KT 02/M03 A3038 RMK A01 T00241030  RH  068%=      5-min Rain = 0
KST2 020441Z 24006KT 02/M03 A3038 RMK A01 T00231029  RH  068%=      5-min Rain = 0
KST2 020442Z 24006KT 02/M03 A3038 RMK A01 T00221029  RH  069%=      5-min Rain = 0
KST2 020443Z 25006KT 02/M03 A3038 RMK A01 T00221028  RH  069%=      5-min Rain = 0
KST2 020444Z 25006KT 02/M03 A3038 RMK A01 T00221028  RH  070%=      5-min Rain = 0
KST2 020445Z 25006KT 02/M03 A3038 RMK A01 T00221027  RH  070%=      5-min Rain = 0
KST2 020446Z 25006KT 02/M03 A3038 RMK A01 T00231027  RH  070%=      5-min Rain = 0
KST2 020447Z 25005KT 02/M03 A3038 RMK A01 T00231027  RH  069%=      5-min Rain = 0
KST2 020448Z 25005KT 02/M03 A3038 RMK A01 T00241027  RH  069%=      5-min Rain = 0
KST2 020449Z 25005KT 02/M03 A3038 RMK A01 T00241027  RH  069%=      5-min Rain = 0
KST2 020450Z 25005KT 02/M03 A3038 RMK A01 T00241027  RH  069%=      5-min Rain = 0
KST2 020451Z 25005KT 02/M03 A3038 RMK A01 T00231027  RH  069%=      5-min Rain = 0
KST2 020452Z 25005KT 02/M03 A3038 RMK A01 T00231027  RH  069%=      5-min Rain = 0
KST2 020453Z 25006KT 02/M03 A3038 RMK A01 T00221027  RH  070%=      5-min Rain = 0
KST2 020454Z 25006KT 02/M03 A3038 RMK A01 T00221027  RH  070%=      5-min Rain = 0
KST2 020455Z 25006KT 02/M03 A3038 RMK A01 T00221027  RH  070%=      5-min Rain = 0
KST2 020456Z 26006KT 02/M03 A3038 RMK A01 T00221027  RH  070%=      5-min Rain = 0
KST2 020457Z 26006KT 02/M03 A3038 RMK A01 T00221026  RH  071%=      5-min Rain = 0
KST2 020458Z 26006KT 02/M03 A3038 RMK A01 T00221026  RH  071%=      5-min Rain = 0
KST2 020459Z 26006KT 02/M03 A3037 RMK A01 T00221026  RH  071%=      5-min Rain = 0
KST2 020500Z 26006KT 02/M03 A3037 RMK A01 T00221026  RH  071%=      5-min Rain = 0
KST2 020501Z 26006KT 02/M03 A3037 RMK A01 T00221025  RH  071%=      5-min Rain = 0
KST2 020502Z 26006KT 02/M03 A3037 RMK A01 T00211025  RH  072%=      5-min Rain = 0
KST2 020503Z 26006KT 02/M03 A3037 RMK A01 T00211025  RH  072%=      5-min Rain = 0
KST2 020504Z 26006KT 02/M03 A3037 RMK A01 T00201026  RH  072%=      5-min Rain = 0
KST2 020505Z 26006KT 02/M03 A3037 RMK A01 T00191026  RH  072%=      5-min Rain = 0
KST2 020506Z 26005KT 02/M03 A3037 RMK A01 T00191026  RH  072%=      5-min Rain = 0
KST2 020507Z 26005KT 02/M03 A3037 RMK A01 T00181026  RH  073%=      5-min Rain = 0
KST2 020508Z 26005KT 02/M03 A3037 RMK A01 T00181026  RH  073%=      5-min Rain = 0
KST2 020509Z 26005KT 02/M03 A3037 RMK A01 T00171026  RH  073%=      5-min Rain = 0
KST2 020510Z 26006KT 02/M03 A3037 RMK A01 T00171027  RH  073%=      5-min Rain = 0
KST2 020511Z 26006KT 02/M03 A3037 RMK A01 T00171026  RH  073%=      5-min Rain = 0
KST2 020512Z 26006KT 02/M03 A3037 RMK A01 T00161026  RH  073%=      5-min Rain = 0
KST2 020513Z 26006KT 02/M03 A3037 RMK A01 T00161026  RH  073%=      5-min Rain = 0
KST2 020514Z 26006KT 02/M03 A3037 RMK A01 T00161026  RH  074%=      5-min Rain = 0
KST2 020515Z 26006KT 02/M03 A3037 RMK A01 T00151025  RH  074%=      5-min Rain = 0
KST2 020516Z 26006KT 02/M03 A3037 RMK A01 T00151025  RH  075%=      5-min Rain = 0
KST2 020517Z 26006KT 02/M03 A3037 RMK A01 T00151025  RH  075%=      5-min Rain = 0
KST2 020518Z 26006KT 02/M02 A3037 RMK A01 T00151024  RH  075%=      5-min Rain = 0
KST2 020519Z 26006KT 02/M02 A3037 RMK A01 T00151024  RH  075%=      5-min Rain = 0
KST2 020520Z 26006KT 01/M02 A3037 RMK A01 T00141024  RH  076%=      5-min Rain = 0
KST2 020521Z 26006KT 01/M02 A3037 RMK A01 T00131024  RH  076%=      5-min Rain = 0
KST2 020522Z 26006KT 01/M02 A3037 RMK A01 T00121024  RH  077%=      5-min Rain = 0
KST2 020523Z 25006KT 01/M02 A3037 RMK A01 T00111024  RH  077%=      5-min Rain = 0
KST2 020524Z 25006KT 01/M02 A3036 RMK A01 T00111024  RH  078%=      5-min Rain = 0
KST2 020525Z 25006KT 01/M02 A3036 RMK A01 T00101024  RH  078%=      5-min Rain = 0
KST2 020526Z 25006KT 01/M02 A3036 RMK A01 T00101024  RH  078%=      5-min Rain = 0
KST2 020527Z 25006KT 01/M02 A3036 RMK A01 T00091023  RH  079%=      5-min Rain = 0
KST2 020528Z 25006KT 01/M02 A3036 RMK A01 T00101023  RH  079%=      5-min Rain = 0
KST2 020529Z 25006KT 01/M02 A3036 RMK A01 T00091024  RH  079%=      5-min Rain = 0
KST2 020530Z 25006KT 01/M02 A3036 RMK A01 T00091024  RH  079%=      5-min Rain = 0
KST2 020531Z 26006KT 01/M02 A3036 RMK A01 T00081024  RH  079%=      5-min Rain = 0
KST2 020532Z 26006KT 01/M02 A3036 RMK A01 T00081024  RH  079%=      5-min Rain = 0
KST2 020533Z 26005KT 01/M02 A3036 RMK A01 T00081024  RH  080%=      5-min Rain = 0
KST2 020534Z 26005KT 01/M02 A3036 RMK A01 T00081023  RH  080%=      5-min Rain = 0
KST2 020535Z 26006KT 01/M02 A3036 RMK A01 T00081023  RH  080%=      5-min Rain = 0
KST2 020536Z 26006KT 01/M02 A3036 RMK A01 T00091022  RH  080%=      5-min Rain = 0
KST2 020537Z 26007KT 01/M02 A3036 RMK A01 T00101021  RH  080%=      5-min Rain = 0
KST2 020538Z 26007KT 01/M02 A3036 RMK A01 T00111021  RH  079%=      5-min Rain = 0
KST2 020539Z 26007KT 01/M02 A3036 RMK A01 T00111020  RH  079%=      5-min Rain = 0
KST2 020540Z 26007KT 01/M02 A3036 RMK A01 T00111021  RH  079%=      5-min Rain = 0
KST2 020541Z 26006KT 01/M02 A3036 RMK A01 T00111021  RH  079%=      5-min Rain = 0
KST2 020542Z 26006KT 01/M02 A3036 RMK A01 T00111021  RH  079%=      5-min Rain = 0
KST2 020543Z 26006KT 01/M02 A3035 RMK A01 T00111021  RH  079%=      5-min Rain = 0
KST2 020544Z 26006KT 01/M02 A3035 RMK A01 T00101021  RH  079%=      5-min Rain = 0
KST2 020545Z 27006KT 01/M02 A3035 RMK A01 T00101022  RH  080%=      5-min Rain = 0
KST2 020546Z 27006KT 01/M02 A3035 RMK A01 T00091023  RH  080%=      5-min Rain = 0
KST2 020547Z 27006KT 01/M02 A3035 RMK A01 T00071024  RH  080%=      5-min Rain = 0
KST2 020548Z 27006KT 01/M02 A3035 RMK A01 T00071024  RH  080%=      5-min Rain = 0
KST2 020549Z 27007KT 01/M02 A3035 RMK A01 T00061024  RH  080%=      5-min Rain = 0
KST2 020550Z 27007KT 01/M02 A3035 RMK A01 T00061024  RH  080%=      5-min Rain = 0
KST2 020551Z 27006KT 01/M02 A3035 RMK A01 T00061023  RH  081%=      5-min Rain = 0
KST2 020552Z 27006KT 01/M02 A3035 RMK A01 T00061023  RH  081%=      5-min Rain = 0
KST2 020553Z 27006KT 01/M02 A3035 RMK A01 T00071023  RH  081%=      5-min Rain = 0
KST2 020554Z 28006KT 01/M02 A3035 RMK A01 T00071022  RH  081%=      5-min Rain = 0
KST2 020555Z 28007KT 01/M02 A3035 RMK A01 T00081022  RH  081%=      5-min Rain = 0
KST2 020556Z 28007KT 01/M02 A3035 RMK A01 T00081022  RH  081%=      5-min Rain = 0
KST2 020557Z 28007KT 01/M02 A3035 RMK A01 T00081021  RH  081%=      5-min Rain = 0
KST2 020558Z 28007KT 01/M02 A3035 RMK A01 T00081021  RH  081%=      5-min Rain = 0
KST2 020559Z 28007KT 01/M02 A3035 RMK A01 T00081021  RH  081%=      5-min Rain = 0

Page generated in 0.1121 seconds.